Time,TemperatureF,DewpointF,PressureIn,WindDirection,WindDirectionDegrees,WindSpeedMPH,WindSpeedGustMPH,Humidity,HourlyPrecipIn,Conditions,Clouds,dailyrainin,SoftwareType,DateUTC
2013-04-08 00:03:00,65.8,65.9,30.05,SSW,193,7.3,29.3,100,0.03,,SKC,0.03,VWS V14.01,2013-04-08 04:03:00,
2013-04-08 00:05:00,65.8,65.8,30.05,SSW,195,5.2,29.3,100,0.03,,SKC,0.03,VWS V14.01,2013-04-08 04:05:00,
2013-04-08 00:08:00,65.9,65.9,30.05,North,359,1.9,29.3,100,0.03,,SKC,0.03,VWS V14.01,2013-04-08 04:08:00,
2013-04-08 00:10:00,65.8,65.8,30.05,South,174,5.4,29.3,100,0.03,,SKC,0.03,VWS V14.01,2013-04-08 04:10:00,
2013-04-08 00:11:00,65.9,65.8,30.04,North,359,0.4,29.3,100,0.03,,SKC,0.03,VWS V14.01,2013-04-08 04:11:00,
2013-04-08 00:13:00,65.8,65.8,30.04,North,359,0.0,29.3,100,0.03,,SKC,0.03,VWS V14.01,2013-04-08 04:13:00,
2013-04-08 00:14:00,65.9,65.9,30.04,North,359,7.9,29.3,100,0.03,,SKC,0.03,VWS V14.01,2013-04-08 04:14:00,
2013-04-08 00:15:00,65.8,65.8,30.05,South,188,0.7,29.3,100,0.03,,SKC,0.03,VWS V14.01,2013-04-08 04:15:00,
2013-04-08 00:17:00,65.8,65.8,30.05,SSW,210,0.0,29.3,100,0.03,,SKC,0.03,VWS V14.01,2013-04-08 04:17:00,
2013-04-08 00:18:00,65.9,65.9,30.05,SSW,210,0.0,29.3,100,0.03,,SKC,0.03,VWS V14.01,2013-04-08 04:18:00,
2013-04-08 00:19:00,65.8,65.8,30.05,SSW,198,0.0,29.3,100,0.03,,SKC,0.03,VWS V14.01,2013-04-08 04:19:00,
2013-04-08 00:21:00,65.8,65.8,30.05,North,359,0.0,29.3,100,0.03,,SKC,0.03,VWS V14.01,2013-04-08 04:21:00,
2013-04-08 00:23:00,65.8,65.8,30.05,SW,219,0.0,29.3,100,0.03,,SKC,0.03,VWS V14.01,2013-04-08 04:23:00,
2013-04-08 00:25:00,65.7,65.7,30.05,SSE,163,0.3,29.3,100,0.03,,SKC,0.03,VWS V14.01,2013-04-08 04:25:00,
2013-04-08 00:26:00,65.8,65.7,30.05,SSW,205,5.8,29.3,100,0.03,,SKC,0.03,VWS V14.01,2013-04-08 04:26:00,
2013-04-08 00:28:00,65.8,65.7,30.05,North,359,0.0,29.3,100,0.03,,SKC,0.03,VWS V14.01,2013-04-08 04:28:00,
2013-04-08 00:30:00,65.7,65.7,30.05,North,359,0.3,29.3,100,0.03,,SKC,0.03,VWS V14.01,2013-04-08 04:30:00,
2013-04-08 00:31:00,65.7,65.7,30.05,SW,229,8.3,29.3,100,0.03,,SKC,0.03,VWS V14.01,2013-04-08 04:31:00,
2013-04-08 00:33:00,65.8,65.8,30.04,SW,222,0.0,29.3,100,0.03,,SKC,0.03,VWS V14.01,2013-04-08 04:33:00,
2013-04-08 00:35:00,65.7,65.7,30.05,SSW,204,4.3,29.3,100,0.03,,SKC,0.03,VWS V14.01,2013-04-08 04:35:00,
2013-04-08 00:36:00,65.7,65.7,30.05,South,190,2.8,29.3,100,0.03,,SKC,0.03,VWS V14.01,2013-04-08 04:36:00,
2013-04-08 00:38:00,65.7,65.7,30.04,South,188,7.5,29.3,100,0.03,,SKC,0.03,VWS V14.01,2013-04-08 04:38:00,
2013-04-08 00:39:00,65.7,65.7,30.04,SW,214,4.9,29.3,100,0.03,,SKC,0.03,VWS V14.01,2013-04-08 04:39:00,
2013-04-08 00:40:00,65.7,65.7,30.04,SSW,210,5.1,29.3,100,0.03,,SKC,0.03,VWS V14.01,2013-04-08 04:40:00,
2013-04-08 00:41:00,65.7,65.6,30.04,South,183,0.0,29.3,100,0.03,,SKC,0.03,VWS V14.01,2013-04-08 04:41:00,
2013-04-08 00:44:00,65.6,65.6,30.04,SSW,208,3.0,29.3,100,0.03,,SKC,0.03,VWS V14.01,2013-04-08 04:44:00,
2013-04-08 00:45:00,65.6,65.6,30.04,SSW,207,5.6,29.3,100,0.03,,SKC,0.03,VWS V14.01,2013-04-08 04:45:00,
2013-04-08 00:46:00,65.6,65.6,30.04,South,183,3.9,29.3,100,0.03,,SKC,0.03,VWS V14.01,2013-04-08 04:46:00,
2013-04-08 00:49:00,65.6,65.6,30.04,SSE,162,1.6,29.3,100,0.03,,SKC,0.03,VWS V14.01,2013-04-08 04:49:00,
2013-04-08 00:50:00,65.6,65.6,30.04,South,184,6.3,29.3,100,0.03,,SKC,0.03,VWS V14.01,2013-04-08 04:50:00,
2013-04-08 00:52:00,65.6,65.6,30.04,South,169,8.5,29.3,100,0.03,,SKC,0.03,VWS V14.01,2013-04-08 04:52:00,
2013-04-08 00:54:00,65.5,65.5,30.04,SSW,204,4.6,29.3,100,0.03,,SKC,0.03,VWS V14.01,2013-04-08 04:54:00,
2013-04-08 00:55:00,65.6,65.6,30.04,South,173,6.8,29.3,100,0.03,,SKC,0.03,VWS V14.01,2013-04-08 04:55:00,
2013-04-08 00:57:00,65.6,65.6,30.04,SSW,211,0.0,29.3,100,0.03,,SKC,0.03,VWS V14.01,2013-04-08 04:57:00,
2013-04-08 00:59:00,65.6,65.6,30.04,SSW,195,6.2,29.3,100,0.03,,SKC,0.03,VWS V14.01,2013-04-08 04:59:00,
2013-04-08 01:00:00,65.6,65.6,30.04,SSW,198,6.1,6.8,100,0.00,,SKC,0.03,VWS V14.01,2013-04-08 05:00:00,
2013-04-08 01:01:00,65.3,65.3,30.03,SW,217,0.0,0.0,100,0.00,,SKC,0.00,VWS V14.01,2013-04-08 05:01:00,
2013-04-08 01:02:00,65.3,65.3,30.03,SW,217,0.0,0.0,100,0.00,,SKC,0.00,VWS V14.01,2013-04-08 05:02:00,
2013-04-08 01:03:00,65.6,65.5,30.04,SSW,208,2.9,8.1,100,0.00,,SKC,0.03,VWS V14.01,2013-04-08 05:03:00,
2013-04-08 01:04:00,65.3,65.2,30.03,SW,217,0.0,0.0,100,0.00,,SKC,0.00,VWS V14.01,2013-04-08 05:04:00,
2013-04-08 01:05:00,65.5,65.5,30.04,South,180,4.0,5.5,100,0.00,,SKC,0.03,VWS V14.01,2013-04-08 05:05:00,
2013-04-08 01:08:00,65.6,65.4,30.04,SSE,158,4.5,8.8,100,0.00,,SKC,0.03,VWS V14.01,2013-04-08 05:08:00,
2013-04-08 01:10:00,65.6,65.6,30.04,SW,224,0.0,0.0,100,0.00,,SKC,0.03,VWS V14.01,2013-04-08 05:10:00,
2013-04-08 01:13:00,65.4,65.4,30.04,North,359,1.6,6.8,100,0.00,,SKC,0.03,VWS V14.01,2013-04-08 05:13:00,
2013-04-08 01:15:00,65.5,65.5,30.04,SW,218,6.7,6.7,100,0.00,,SKC,0.03,VWS V14.01,2013-04-08 05:15:00,
2013-04-08 01:18:00,65.4,65.4,30.04,SW,221,3.2,9.4,100,0.00,,SKC,0.03,VWS V14.01,2013-04-08 05:18:00,
2013-04-08 01:20:00,65.4,65.4,30.04,SW,226,4.6,7.6,100,0.00,,SKC,0.03,VWS V14.01,2013-04-08 05:20:00,
2013-04-08 01:21:00,65.4,65.4,30.04,SW,214,3.7,7.6,100,0.00,,SKC,0.03,VWS V14.01,2013-04-08 05:21:00,
2013-04-08 01:23:00,65.4,65.5,30.04,SW,231,3.9,5.0,100,0.00,,SKC,0.03,VWS V14.01,2013-04-08 05:23:00,
2013-04-08 01:25:00,65.4,65.4,30.04,SSE,159,0.0,0.0,100,0.00,,SKC,0.03,VWS V14.01,2013-04-08 05:25:00,
2013-04-08 01:26:00,65.4,65.4,30.04,SSE,159,0.0,0.0,100,0.00,,SKC,0.03,VWS V14.01,2013-04-08 05:26:00,
2013-04-08 01:28:00,65.4,65.4,30.04,SSE,159,3.2,6.1,100,0.00,,SKC,0.03,VWS V14.01,2013-04-08 05:28:00,
2013-04-08 01:31:00,65.3,65.3,30.03,SSW,200,4.2,6.7,100,0.00,,SKC,0.03,VWS V14.01,2013-04-08 05:31:00,
2013-04-08 01:33:00,65.4,65.4,30.03,SSW,197,6.7,6.7,100,0.00,,SKC,0.03,VWS V14.01,2013-04-08 05:33:00,
2013-04-08 01:36:00,65.3,65.3,30.03,North,359,0.0,2.5,100,0.00,,SKC,0.03,VWS V14.01,2013-04-08 05:36:00,
2013-04-08 01:37:00,65.3,65.3,30.03,North,359,0.0,0.5,100,0.00,,SKC,0.03,VWS V14.01,2013-04-08 05:37:00,
2013-04-08 01:38:00,65.3,65.3,30.03,North,359,0.0,0.0,100,0.00,,SKC,0.03,VWS V14.01,2013-04-08 05:38:00,
2013-04-08 01:41:00,65.3,65.3,30.04,SSW,204,5.5,7.1,100,0.00,,SKC,0.03,VWS V14.01,2013-04-08 05:41:00,
2013-04-08 01:42:00,65.3,65.3,30.04,SW,214,6.7,6.7,100,0.00,,SKC,0.03,VWS V14.01,2013-04-08 05:42:00,
2013-04-08 01:43:00,65.3,65.3,30.04,SW,232,0.0,0.0,100,0.00,,SKC,0.03,VWS V14.01,2013-04-08 05:43:00,
2013-04-08 01:46:00,65.3,65.3,30.04,South,184,0.0,0.0,100,0.00,,SKC,0.03,VWS V14.01,2013-04-08 05:46:00,
2013-04-08 01:47:00,65.3,65.3,30.04,SSE,148,5.2,9.4,100,0.00,,SKC,0.03,VWS V14.01,2013-04-08 05:47:00,
2013-04-08 01:49:00,65.3,65.3,30.04,SW,217,0.0,5.2,100,0.00,,SKC,0.03,VWS V14.01,2013-04-08 05:49:00,
2013-04-08 01:51:00,65.3,65.3,30.04,SW,217,0.0,0.0,100,0.00,,SKC,0.03,VWS V14.01,2013-04-08 05:51:00,
2013-04-08 01:52:00,65.2,65.2,30.04,SW,217,0.0,0.0,100,0.00,,SKC,0.03,VWS V14.01,2013-04-08 05:52:00,
2013-04-08 01:54:00,65.3,65.3,30.03,SW,217,0.0,0.0,100,0.00,,SKC,0.03,VWS V14.01,2013-04-08 05:54:00,
2013-04-08 01:56:00,65.3,65.3,30.03,SW,217,0.0,0.0,100,0.00,,SKC,0.03,VWS V14.01,2013-04-08 05:56:00,
2013-04-08 01:57:00,65.3,65.3,30.03,SW,217,0.0,0.0,100,0.00,,SKC,0.03,VWS V14.01,2013-04-08 05:57:00,
2013-04-08 02:02:00,65.2,65.2,30.03,SW,217,0.0,0.0,100,0.00,,SKC,0.00,VWS V14.01,2013-04-08 06:02:00,
2013-04-08 02:03:00,65.2,65.2,30.03,SW,217,0.0,0.0,100,0.00,,SKC,0.00,VWS V14.01,2013-04-08 06:03:00,
2013-04-08 02:07:00,65.2,65.2,30.03,SSW,200,2.9,8.1,100,0.00,,SKC,0.00,VWS V14.01,2013-04-08 06:07:00,
2013-04-08 02:08:00,65.2,65.2,30.03,SSW,205,2.4,8.1,100,0.00,,SKC,0.00,VWS V14.01,2013-04-08 06:08:00,
2013-04-08 02:12:00,65.2,65.2,30.03,SSW,201,3.2,8.1,100,0.00,,SKC,0.00,VWS V14.01,2013-04-08 06:12:00,
2013-04-08 02:13:00,65.2,65.2,30.03,SW,222,3.3,8.1,100,0.00,,SKC,0.00,VWS V14.01,2013-04-08 06:13:00,
2013-04-08 02:17:00,65.2,65.2,30.03,South,187,3.7,8.5,100,0.00,,SKC,0.00,VWS V14.01,2013-04-08 06:17:00,
2013-04-08 02:18:00,65.1,65.1,30.03,South,177,3.8,8.5,100,0.00,,SKC,0.00,VWS V14.01,2013-04-08 06:18:00,
2013-04-08 02:23:00,65.1,65.1,30.02,SE,138,1.4,9.0,100,0.00,,SKC,0.00,VWS V14.01,2013-04-08 06:23:00,
2013-04-08 02:24:00,65.1,65.1,30.02,SSE,160,2.9,9.0,100,0.00,,SKC,0.00,VWS V14.01,2013-04-08 06:24:00,
2013-04-08 02:28:00,65.1,65.1,30.02,SW,218,0.0,9.1,100,0.00,,SKC,0.00,VWS V14.01,2013-04-08 06:28:00,
2013-04-08 02:29:00,65.1,65.1,30.02,South,177,1.2,9.1,100,0.00,,SKC,0.00,VWS V14.01,2013-04-08 06:29:00,
2013-04-08 02:33:00,65.1,65.1,30.02,South,188,3.0,9.8,100,0.00,,SKC,0.00,VWS V14.01,2013-04-08 06:33:00,
2013-04-08 02:34:00,65.1,65.1,30.02,SSE,163,7.9,9.8,100,0.00,,SKC,0.00,VWS V14.01,2013-04-08 06:34:00,
2013-04-08 02:38:00,65.1,65.1,30.02,SW,221,0.4,15.6,100,0.00,,SKC,0.00,VWS V14.01,2013-04-08 06:38:00,
2013-04-08 02:39:00,65.1,65.1,30.02,North,359,0.0,15.6,100,0.00,,SKC,0.00,VWS V14.01,2013-04-08 06:39:00,
2013-04-08 02:43:00,65.1,65.1,30.02,South,170,2.5,15.6,100,0.00,,SKC,0.00,VWS V14.01,2013-04-08 06:43:00,
2013-04-08 02:44:00,65.1,65.1,30.02,South,184,2.5,15.6,100,0.00,,SKC,0.00,VWS V14.01,2013-04-08 06:44:00,
2013-04-08 02:45:00,65.1,65.1,30.02,South,174,6.3,15.6,100,0.00,,SKC,0.00,VWS V14.01,2013-04-08 06:45:00,
2013-04-08 02:48:00,65.1,65.1,30.02,South,172,1.9,15.6,100,0.00,,SKC,0.00,VWS V14.01,2013-04-08 06:48:00,
2013-04-08 02:49:00,65.1,65.1,30.02,South,177,6.9,15.6,100,0.00,,SKC,0.00,VWS V14.01,2013-04-08 06:49:00,
2013-04-08 02:50:00,65.1,65.1,30.02,South,173,2.6,15.6,100,0.00,,SKC,0.00,VWS V14.01,2013-04-08 06:50:00,
2013-04-08 02:53:00,65.1,65.1,30.02,SSW,200,2.6,15.6,100,0.00,,SKC,0.00,VWS V14.01,2013-04-08 06:53:00,
2013-04-08 02:54:00,65.1,65.1,30.02,SSW,204,5.5,15.6,100,0.00,,SKC,0.00,VWS V14.01,2013-04-08 06:54:00,
2013-04-08 02:55:00,65.1,65.1,30.02,SSW,197,3.5,15.6,100,0.00,,SKC,0.00,VWS V14.01,2013-04-08 06:55:00,
2013-04-08 02:58:00,65.1,65.1,30.02,SSW,208,0.0,15.6,100,0.00,,SKC,0.00,VWS V14.01,2013-04-08 06:58:00,
2013-04-08 02:59:00,65.1,65.1,30.02,SSW,208,0.0,15.6,100,0.00,,SKC,0.00,VWS V14.01,2013-04-08 06:59:00,
2013-04-08 03:00:00,65.1,65.1,30.02,SSW,208,0.0,15.6,100,0.00,,SKC,0.00,VWS V14.01,2013-04-08 07:00:00,
2013-04-08 03:03:00,65.1,65.1,30.02,South,191,0.0,15.6,100,0.00,,SKC,0.00,VWS V14.01,2013-04-08 07:03:00,
2013-04-08 03:05:00,65.1,65.1,30.02,South,191,0.0,15.6,100,0.00,,SKC,0.00,VWS V14.01,2013-04-08 07:05:00,
2013-04-08 03:06:00,65.1,65.1,30.02,South,191,0.0,15.6,100,0.00,,SKC,0.00,VWS V14.01,2013-04-08 07:06:00,
2013-04-08 03:09:00,65.1,65.1,30.01,South,188,4.7,15.6,100,0.00,,SKC,0.00,VWS V14.01,2013-04-08 07:09:00,
2013-04-08 03:10:00,65.1,65.1,30.01,South,172,5.1,15.6,100,0.00,,SKC,0.00,VWS V14.01,2013-04-08 07:10:00,
2013-04-08 03:11:00,65.2,65.2,30.01,South,173,3.3,15.6,100,0.00,,SKC,0.00,VWS V14.01,2013-04-08 07:11:00,
2013-04-08 03:14:00,65.1,65.1,30.01,South,179,4.5,15.6,100,0.00,,SKC,0.00,VWS V14.01,2013-04-08 07:14:00,
2013-04-08 03:15:00,65.2,65.2,30.01,SSE,158,0.8,15.6,100,0.00,,SKC,0.00,VWS V14.01,2013-04-08 07:15:00,
2013-04-08 03:16:00,65.2,65.2,30.01,SSE,158,0.0,15.6,100,0.00,,SKC,0.00,VWS V14.01,2013-04-08 07:16:00,
2013-04-08 03:17:00,65.2,65.2,30.01,North,359,0.0,15.6,100,0.00,,SKC,0.00,VWS V14.01,2013-04-08 07:17:00,
2013-04-08 03:19:00,65.3,65.3,30.01,North,359,0.0,15.6,100,0.00,,SKC,0.00,VWS V14.01,2013-04-08 07:19:00,
2013-04-08 03:20:00,65.3,65.3,30.01,North,359,0.0,15.6,100,0.00,,SKC,0.00,VWS V14.01,2013-04-08 07:20:00,
2013-04-08 03:21:00,65.3,65.3,30.01,North,359,0.0,15.6,100,0.00,,SKC,0.00,VWS V14.01,2013-04-08 07:21:00,
2013-04-08 03:22:00,65.3,65.3,30.01,North,359,0.0,15.6,100,0.00,,SKC,0.00,VWS V14.01,2013-04-08 07:22:00,
2013-04-08 03:25:00,65.3,65.3,30.01,North,359,0.0,15.6,100,0.00,,SKC,0.00,VWS V14.01,2013-04-08 07:25:00,
2013-04-08 03:26:00,65.3,65.3,30.01,North,359,0.0,15.6,100,0.00,,SKC,0.00,VWS V14.01,2013-04-08 07:26:00,
2013-04-08 03:27:00,65.3,65.3,30.01,South,183,7.5,15.6,100,0.00,,SKC,0.00,VWS V14.01,2013-04-08 07:27:00,
2013-04-08 03:30:00,65.3,65.3,30.01,South,188,0.0,15.6,100,0.00,,SKC,0.00,VWS V14.01,2013-04-08 07:30:00,
2013-04-08 03:32:00,65.3,65.3,30.01,South,188,0.0,15.6,100,0.00,,SKC,0.00,VWS V14.01,2013-04-08 07:32:00,
2013-04-08 03:33:00,65.4,65.3,30.01,SW,224,3.4,15.6,100,0.00,,SKC,0.00,VWS V14.01,2013-04-08 07:33:00,
2013-04-08 03:35:00,65.4,65.4,30.01,SW,218,4.7,15.6,100,0.00,,SKC,0.00,VWS V14.01,2013-04-08 07:35:00,
2013-04-08 03:37:00,65.4,65.4,30.01,SW,215,5.4,15.6,100,0.00,,SKC,0.00,VWS V14.01,2013-04-08 07:37:00,
2013-04-08 03:38:00,65.4,65.4,30.01,SW,214,3.6,15.6,100,0.00,,SKC,0.00,VWS V14.01,2013-04-08 07:38:00,
2013-04-08 03:40:00,65.4,65.4,30.01,SW,229,1.9,15.6,100,0.00,,SKC,0.00,VWS V14.01,2013-04-08 07:40:00,
2013-04-08 03:42:00,65.4,65.4,30.01,SSW,211,6.3,15.6,100,0.00,,SKC,0.00,VWS V14.01,2013-04-08 07:42:00,
2013-04-08 03:43:00,65.4,65.4,30.01,SSW,194,1.7,15.6,100,0.00,,SKC,0.00,VWS V14.01,2013-04-08 07:43:00,
2013-04-08 03:46:00,65.4,65.4,30.01,South,179,4.5,15.6,100,0.00,,SKC,0.00,VWS V14.01,2013-04-08 07:46:00,
2013-04-08 03:47:00,65.4,65.4,30.01,South,179,4.3,15.6,100,0.00,,SKC,0.00,VWS V14.01,2013-04-08 07:47:00,
2013-04-08 03:49:00,65.4,65.4,30.01,SSW,202,4.5,15.6,100,0.00,,SKC,0.00,VWS V14.01,2013-04-08 07:49:00,
2013-04-08 03:51:00,65.4,65.4,30.01,South,191,3.3,15.6,100,0.00,,SKC,0.00,VWS V14.01,2013-04-08 07:51:00,
2013-04-08 03:52:00,65.4,65.4,30.01,SSW,193,3.9,15.6,100,0.00,,SKC,0.00,VWS V14.01,2013-04-08 07:52:00,
2013-04-08 03:54:00,65.4,65.4,30.01,SSW,197,2.7,15.6,100,0.00,,SKC,0.00,VWS V14.01,2013-04-08 07:54:00,
2013-04-08 03:56:00,65.4,65.4,30.00,SSW,195,6.0,15.6,100,0.00,,SKC,0.00,VWS V14.01,2013-04-08 07:56:00,
2013-04-08 03:57:00,65.4,65.4,30.00,SSW,202,0.0,15.6,100,0.00,,SKC,0.00,VWS V14.01,2013-04-08 07:57:00,
2013-04-08 03:59:00,65.4,65.4,30.00,SSW,202,0.0,15.6,100,0.00,,SKC,0.00,VWS V14.01,2013-04-08 07:59:00,
2013-04-08 04:02:00,65.4,65.4,30.00,South,177,0.0,15.6,100,0.00,,SKC,0.00,VWS V14.01,2013-04-08 08:02:00,
2013-04-08 04:04:00,65.4,65.4,30.00,South,177,0.0,15.6,100,0.00,,SKC,0.00,VWS V14.01,2013-04-08 08:04:00,
2013-04-08 04:05:00,65.3,65.3,30.00,South,177,0.0,15.6,100,0.00,,SKC,0.00,VWS V14.01,2013-04-08 08:05:00,
2013-04-08 04:07:00,65.4,65.4,30.00,SSW,201,3.2,15.6,100,0.00,,SKC,0.00,VWS V14.01,2013-04-08 08:07:00,
2013-04-08 04:09:00,65.4,65.4,30.00,North,359,2.8,15.6,100,0.00,,SKC,0.00,VWS V14.01,2013-04-08 08:09:00,
2013-04-08 04:10:00,65.4,65.4,30.00,SSE,162,4.9,15.6,100,0.00,,SKC,0.00,VWS V14.01,2013-04-08 08:10:00,
2013-04-08 04:12:00,65.4,65.4,30.00,South,190,0.0,15.6,100,0.00,,SKC,0.00,VWS V14.01,2013-04-08 08:12:00,
2013-04-08 04:14:00,65.4,65.4,30.00,SSW,210,8.1,15.6,100,0.00,,SKC,0.00,VWS V14.01,2013-04-08 08:14:00,
2013-04-08 04:15:00,65.4,65.4,30.00,SSW,202,3.9,15.6,100,0.00,,SKC,0.00,VWS V14.01,2013-04-08 08:15:00,
2013-04-08 04:17:00,65.4,65.4,30.00,South,179,7.3,15.6,100,0.00,,SKC,0.00,VWS V14.01,2013-04-08 08:17:00,
2013-04-08 04:19:00,65.4,65.4,30.00,South,174,6.3,15.6,100,0.00,,SKC,0.00,VWS V14.01,2013-04-08 08:19:00,
2013-04-08 04:20:00,65.4,65.4,29.99,SSW,193,4.1,15.6,100,0.00,,SKC,0.00,VWS V14.01,2013-04-08 08:20:00,
2013-04-08 04:22:00,65.5,65.5,29.99,SW,233,0.0,15.6,100,0.00,,SKC,0.00,VWS V14.01,2013-04-08 08:22:00,
2013-04-08 04:23:00,65.4,65.4,29.99,South,179,7.5,15.6,100,0.00,,SKC,0.00,VWS V14.01,2013-04-08 08:23:00,
2013-04-08 04:25:00,65.4,65.4,29.99,North,359,4.1,15.6,100,0.00,,SKC,0.00,VWS V14.01,2013-04-08 08:25:00,
2013-04-08 04:27:00,65.4,65.4,29.99,South,181,2.7,15.6,100,0.00,,SKC,0.00,VWS V14.01,2013-04-08 08:27:00,
2013-04-08 04:28:00,65.4,65.4,29.99,South,174,7.5,15.6,100,0.00,,SKC,0.00,VWS V14.01,2013-04-08 08:28:00,
2013-04-08 04:30:00,65.5,65.5,29.99,SSW,195,0.0,15.6,100,0.00,,SKC,0.00,VWS V14.01,2013-04-08 08:30:00,
2013-04-08 04:31:00,65.6,65.6,29.99,SSW,195,0.0,15.6,100,0.00,,SKC,0.00,VWS V14.01,2013-04-08 08:31:00,
2013-04-08 04:33:00,65.5,65.5,29.99,SSW,195,0.0,15.6,100,0.00,,SKC,0.00,VWS V14.01,2013-04-08 08:33:00,
2013-04-08 04:35:00,65.6,65.6,29.99,North,359,9.6,15.6,100,0.00,,SKC,0.00,VWS V14.01,2013-04-08 08:35:00,
2013-04-08 04:36:00,65.6,65.6,29.99,SSW,208,2.4,15.6,100,0.00,,SKC,0.00,VWS V14.01,2013-04-08 08:36:00,
2013-04-08 04:38:00,65.5,65.5,29.99,SW,221,0.0,15.6,100,0.00,,SKC,0.00,VWS V14.01,2013-04-08 08:38:00,
2013-04-08 04:40:00,65.5,65.6,29.99,North,359,0.0,15.6,100,0.00,,SKC,0.00,VWS V14.01,2013-04-08 08:40:00,
2013-04-08 04:41:00,65.6,65.6,29.99,North,359,0.0,15.6,100,0.00,,SKC,0.00,VWS V14.01,2013-04-08 08:41:00,
2013-04-08 04:43:00,65.5,65.5,29.99,SSW,204,7.4,15.6,100,0.00,,SKC,0.00,VWS V14.01,2013-04-08 08:43:00,
2013-04-08 04:44:00,65.5,65.5,29.99,North,359,2.1,15.6,100,0.00,,SKC,0.00,VWS V14.01,2013-04-08 08:44:00,
2013-04-08 04:45:00,65.5,65.6,29.99,South,188,4.7,15.6,100,0.00,,SKC,0.00,VWS V14.01,2013-04-08 08:45:00,
2013-04-08 04:47:00,65.6,65.6,29.99,North,359,6.9,15.6,100,0.00,,SKC,0.00,VWS V14.01,2013-04-08 08:47:00,
2013-04-08 04:48:00,65.6,65.6,29.99,SW,214,3.4,15.6,100,0.00,,SKC,0.00,VWS V14.01,2013-04-08 08:48:00,
2013-04-08 04:49:00,65.5,65.4,29.99,SSW,208,3.5,15.6,100,0.00,,SKC,0.00,VWS V14.01,2013-04-08 08:49:00,
2013-04-08 04:50:00,65.5,65.5,29.99,South,183,4.2,15.6,100,0.00,,SKC,0.00,VWS V14.01,2013-04-08 08:50:00,
2013-04-08 04:52:00,65.5,65.5,29.99,SE,129,6.1,15.6,100,0.00,,SKC,0.00,VWS V14.01,2013-04-08 08:52:00,
2013-04-08 04:53:00,65.6,65.6,29.99,SSW,201,5.8,15.6,100,0.00,,SKC,0.00,VWS V14.01,2013-04-08 08:53:00,
2013-04-08 04:54:00,65.5,65.5,29.99,SSW,198,2.5,15.6,100,0.00,,SKC,0.00,VWS V14.01,2013-04-08 08:54:00,
2013-04-08 04:55:00,65.4,65.4,29.99,South,187,0.0,15.6,100,0.00,,SKC,0.00,VWS V14.01,2013-04-08 08:55:00,
2013-04-08 04:57:00,65.5,65.5,29.99,North,359,9.0,15.6,100,0.00,,SKC,0.00,VWS V14.01,2013-04-08 08:57:00,
2013-04-08 04:58:00,65.6,65.6,29.99,East,97,3.0,15.6,100,0.00,,SKC,0.00,VWS V14.01,2013-04-08 08:58:00,
2013-04-08 04:59:00,65.5,65.5,29.99,SSW,202,2.5,15.6,100,0.00,,SKC,0.00,VWS V14.01,2013-04-08 08:59:00,
2013-04-08 05:01:00,65.4,65.4,29.99,SSW,194,4.0,15.6,100,0.00,,SKC,0.00,VWS V14.01,2013-04-08 09:01:00,
2013-04-08 05:02:00,65.5,65.5,29.99,South,191,5.0,15.6,100,0.00,,SKC,0.00,VWS V14.01,2013-04-08 09:02:00,
2013-04-08 05:04:00,65.4,65.4,29.99,South,186,6.4,15.6,100,0.00,,SKC,0.00,VWS V14.01,2013-04-08 09:04:00,
2013-04-08 05:05:00,65.5,65.4,29.99,South,191,2.8,15.6,100,0.00,,SKC,0.00,VWS V14.01,2013-04-08 09:05:00,
2013-04-08 05:06:00,65.4,65.4,29.99,SSW,198,2.8,15.6,100,0.00,,SKC,0.00,VWS V14.01,2013-04-08 09:06:00,
2013-04-08 05:07:00,65.4,65.4,29.99,SSW,201,0.0,15.6,100,0.00,,SKC,0.00,VWS V14.01,2013-04-08 09:07:00,
2013-04-08 05:09:00,65.4,65.4,29.99,South,173,4.0,15.6,100,0.00,,SKC,0.00,VWS V14.01,2013-04-08 09:09:00,
2013-04-08 05:10:00,65.4,65.4,29.99,SSW,198,0.0,15.6,100,0.00,,SKC,0.00,VWS V14.01,2013-04-08 09:10:00,
2013-04-08 05:11:00,65.4,65.4,29.99,South,172,5.8,15.6,100,0.00,,SKC,0.00,VWS V14.01,2013-04-08 09:11:00,
2013-04-08 05:13:00,65.5,65.5,29.99,SW,217,9.6,15.6,100,0.00,,SKC,0.00,VWS V14.01,2013-04-08 09:13:00,
2013-04-08 05:14:00,65.5,65.5,29.99,North,359,0.0,15.6,100,0.00,,SKC,0.00,VWS V14.01,2013-04-08 09:14:00,
2013-04-08 05:15:00,65.4,65.4,29.99,SSW,208,2.2,15.6,100,0.00,,SKC,0.00,VWS V14.01,2013-04-08 09:15:00,
2013-04-08 05:16:00,65.5,65.5,29.99,South,177,7.1,15.6,100,0.00,,SKC,0.00,VWS V14.01,2013-04-08 09:16:00,
2013-04-08 05:18:00,65.4,65.4,29.99,South,173,4.8,15.6,100,0.00,,SKC,0.00,VWS V14.01,2013-04-08 09:18:00,
2013-04-08 05:19:00,65.5,65.4,29.99,SW,222,1.9,15.6,100,0.00,,SKC,0.00,VWS V14.01,2013-04-08 09:19:00,
2013-04-08 05:20:00,65.5,65.5,29.99,SSE,165,4.8,15.6,100,0.00,,SKC,0.00,VWS V14.01,2013-04-08 09:20:00,
2013-04-08 05:21:00,65.4,65.4,29.99,South,188,5.7,15.6,100,0.00,,SKC,0.00,VWS V14.01,2013-04-08 09:21:00,
2013-04-08 05:23:00,65.4,65.4,29.99,South,176,2.9,15.6,100,0.00,,SKC,0.00,VWS V14.01,2013-04-08 09:23:00,
2013-04-08 05:24:00,65.3,65.3,29.99,SSW,205,0.0,15.6,100,0.00,,SKC,0.00,VWS V14.01,2013-04-08 09:24:00,
2013-04-08 05:25:00,65.3,65.3,29.99,SSW,205,0.0,15.6,100,0.00,,SKC,0.00,VWS V14.01,2013-04-08 09:25:00,
2013-04-08 05:28:00,65.4,65.4,29.98,SW,226,2.2,15.6,100,0.00,,SKC,0.00,VWS V14.01,2013-04-08 09:28:00,
2013-04-08 05:29:00,65.4,65.4,29.99,SSE,167,2.5,15.6,100,0.00,,SKC,0.00,VWS V14.01,2013-04-08 09:29:00,
2013-04-08 05:31:00,65.3,65.3,29.99,South,170,0.0,15.6,100,0.00,,SKC,0.00,VWS V14.01,2013-04-08 09:31:00,
2013-04-08 05:33:00,65.4,65.4,29.99,SSW,201,6.2,15.6,100,0.00,,SKC,0.00,VWS V14.01,2013-04-08 09:33:00,
2013-04-08 05:35:00,65.3,65.3,29.99,SSE,167,4.5,15.6,100,0.00,,SKC,0.00,VWS V14.01,2013-04-08 09:35:00,
2013-04-08 05:37:00,65.4,65.4,29.99,SSW,197,3.7,15.6,100,0.00,,SKC,0.00,VWS V14.01,2013-04-08 09:37:00,
2013-04-08 05:38:00,65.3,65.3,29.99,SSE,162,1.0,15.6,100,0.00,,SKC,0.00,VWS V14.01,2013-04-08 09:38:00,
2013-04-08 05:40:00,65.3,65.4,29.99,SSW,205,6.0,15.6,100,0.00,,SKC,0.00,VWS V14.01,2013-04-08 09:40:00,
2013-04-08 05:42:00,65.4,65.4,29.99,South,180,0.0,15.6,100,0.00,,SKC,0.00,VWS V14.01,2013-04-08 09:42:00,
2013-04-08 05:43:00,65.4,65.4,29.99,North,359,0.6,15.6,100,0.00,,SKC,0.00,VWS V14.01,2013-04-08 09:43:00,
2013-04-08 05:45:00,65.3,65.3,29.99,SSW,211,0.2,15.6,100,0.00,,SKC,0.00,VWS V14.01,2013-04-08 09:45:00,
2013-04-08 05:47:00,65.3,65.3,29.99,SSW,201,2.1,15.6,100,0.00,,SKC,0.00,VWS V14.01,2013-04-08 09:47:00,
2013-04-08 05:48:00,65.3,65.3,29.99,SSW,201,0.0,15.6,100,0.00,,SKC,0.00,VWS V14.01,2013-04-08 09:48:00,
2013-04-08 05:49:00,65.4,65.4,29.99,SSW,201,0.0,15.6,100,0.00,,SKC,0.00,VWS V14.01,2013-04-08 09:49:00,
2013-04-08 05:50:00,65.4,65.4,29.99,SSW,201,0.0,15.6,100,0.00,,SKC,0.00,VWS V14.01,2013-04-08 09:50:00,
2013-04-08 05:52:00,65.4,65.4,29.99,SSW,207,3.2,15.6,100,0.00,,SKC,0.00,VWS V14.01,2013-04-08 09:52:00,
2013-04-08 05:53:00,65.4,65.4,29.99,South,172,7.3,15.6,100,0.00,,SKC,0.00,VWS V14.01,2013-04-08 09:53:00,
2013-04-08 05:54:00,65.4,65.4,29.99,SSW,200,5.4,15.6,100,0.00,,SKC,0.00,VWS V14.01,2013-04-08 09:54:00,
2013-04-08 05:55:00,65.3,65.3,29.99,SSW,208,4.7,15.6,100,0.00,,SKC,0.00,VWS V14.01,2013-04-08 09:55:00,
2013-04-08 05:57:00,65.3,65.3,30.00,South,190,4.2,15.6,100,0.00,,SKC,0.00,VWS V14.01,2013-04-08 09:57:00,
2013-04-08 05:58:00,65.4,65.4,30.00,SSW,194,5.5,15.6,100,0.00,,SKC,0.00,VWS V14.01,2013-04-08 09:58:00,
2013-04-08 05:59:00,65.4,65.4,30.00,South,190,3.3,15.6,100,0.00,,SKC,0.00,VWS V14.01,2013-04-08 09:59:00,
2013-04-08 06:00:00,65.4,65.4,29.99,SSE,165,0.0,15.6,100,0.00,,SKC,0.00,VWS V14.01,2013-04-08 10:00:00,
2013-04-08 06:03:00,65.4,65.4,30.00,South,190,7.1,15.6,100,0.00,,SKC,0.00,VWS V14.01,2013-04-08 10:03:00,
2013-04-08 06:05:00,65.4,65.4,29.99,South,190,5.6,15.6,100,0.00,,SKC,0.00,VWS V14.01,2013-04-08 10:05:00,
2013-04-08 06:08:00,65.3,65.3,29.99,SSE,166,3.3,15.6,100,0.00,,SKC,0.00,VWS V14.01,2013-04-08 10:08:00,
2013-04-08 06:09:00,65.4,65.4,29.99,SSW,197,5.0,15.6,100,0.00,,SKC,0.00,VWS V14.01,2013-04-08 10:09:00,
2013-04-08 06:10:00,65.3,65.3,29.99,SSW,197,2.8,15.6,100,0.00,,SKC,0.00,VWS V14.01,2013-04-08 10:10:00,
2013-04-08 06:13:00,65.3,65.3,29.99,South,191,4.5,15.6,100,0.00,,SKC,0.00,VWS V14.01,2013-04-08 10:13:00,
2013-04-08 06:15:00,65.4,65.4,29.99,South,184,2.5,15.6,100,0.00,,SKC,0.00,VWS V14.01,2013-04-08 10:15:00,
2013-04-08 06:18:00,65.3,65.3,30.00,SSW,197,6.3,15.6,100,0.00,,SKC,0.00,VWS V14.01,2013-04-08 10:18:00,
2013-04-08 06:20:00,65.3,65.3,30.00,SSW,208,4.5,15.6,100,0.00,,SKC,0.00,VWS V14.01,2013-04-08 10:20:00,
2013-04-08 06:23:00,65.4,65.4,30.00,South,184,5.5,15.6,100,0.00,,SKC,0.00,VWS V14.01,2013-04-08 10:23:00,
2013-04-08 06:25:00,65.4,65.4,30.00,South,191,6.8,15.6,100,0.00,,SKC,0.00,VWS V14.01,2013-04-08 10:25:00,
2013-04-08 06:26:00,65.4,65.4,30.00,South,190,7.8,15.6,100,0.00,,SKC,0.00,VWS V14.01,2013-04-08 10:26:00,
2013-04-08 06:28:00,65.4,65.4,30.00,South,190,2.5,15.6,100,0.00,,SKC,0.00,VWS V14.01,2013-04-08 10:28:00,
2013-04-08 06:30:00,65.4,65.4,30.00,SSW,197,4.7,15.6,100,0.00,,SKC,0.00,VWS V14.01,2013-04-08 10:30:00,
2013-04-08 06:31:00,65.4,65.4,30.00,SSW,204,3.2,15.6,100,0.00,,SKC,0.00,VWS V14.01,2013-04-08 10:31:00,
2013-04-08 06:33:00,65.4,65.4,30.00,SSW,201,3.4,15.6,100,0.00,,SKC,0.00,VWS V14.01,2013-04-08 10:33:00,
2013-04-08 06:35:00,65.5,65.5,30.00,SSW,194,2.3,15.6,100,0.00,,SKC,0.00,VWS V14.01,2013-04-08 10:35:00,
2013-04-08 06:36:00,65.5,65.5,30.00,SW,226,2.6,15.6,100,0.00,,SKC,0.00,VWS V14.01,2013-04-08 10:36:00,
2013-04-08 06:39:00,65.6,65.6,30.00,SSW,193,5.6,15.6,100,0.00,,SKC,0.00,VWS V14.01,2013-04-08 10:39:00,
2013-04-08 06:40:00,65.6,65.6,30.00,ESE,110,3.5,15.6,100,0.00,,SKC,0.00,VWS V14.01,2013-04-08 10:40:00,
2013-04-08 06:41:00,65.5,65.5,30.00,SSW,198,3.9,15.6,100,0.00,,SKC,0.00,VWS V14.01,2013-04-08 10:41:00,
2013-04-08 06:42:00,65.6,65.6,30.00,South,184,2.8,15.6,100,0.00,,SKC,0.00,VWS V14.01,2013-04-08 10:42:00,
2013-04-08 06:44:00,65.6,65.6,30.00,South,188,3.5,15.6,100,0.00,,SKC,0.00,VWS V14.01,2013-04-08 10:44:00,
2013-04-08 06:45:00,65.6,65.6,30.00,SSW,193,4.2,15.6,100,0.00,,SKC,0.00,VWS V14.01,2013-04-08 10:45:00,
2013-04-08 06:46:00,65.5,65.5,30.00,SW,214,1.2,15.6,100,0.00,,SKC,0.00,VWS V14.01,2013-04-08 10:46:00,
2013-04-08 06:47:00,65.6,65.6,30.00,SSW,205,4.9,15.6,100,0.00,,SKC,0.00,VWS V14.01,2013-04-08 10:47:00,
2013-04-08 06:49:00,65.6,65.6,30.00,SSW,200,5.0,15.6,100,0.00,,SKC,0.00,VWS V14.01,2013-04-08 10:49:00,
2013-04-08 06:51:00,65.5,65.5,30.01,SW,226,2.4,15.6,100,0.00,,SKC,0.00,VWS V14.01,2013-04-08 10:51:00,
2013-04-08 06:52:00,65.6,65.6,30.01,SSW,205,3.5,15.6,100,0.00,,SKC,0.00,VWS V14.01,2013-04-08 10:52:00,
2013-04-08 06:54:00,65.5,65.5,30.01,South,187,2.7,15.6,100,0.00,,SKC,0.00,VWS V14.01,2013-04-08 10:54:00,
2013-04-08 06:56:00,65.5,65.5,30.01,South,172,2.2,15.6,100,0.00,,SKC,0.00,VWS V14.01,2013-04-08 10:56:00,
2013-04-08 06:57:00,65.5,65.5,30.01,SSE,167,0.0,15.6,100,0.00,,SKC,0.00,VWS V14.01,2013-04-08 10:57:00,
2013-04-08 06:59:00,65.5,65.5,30.01,South,183,2.2,15.6,100,0.00,,SKC,0.00,VWS V14.01,2013-04-08 10:59:00,
2013-04-08 07:01:00,65.4,65.4,30.01,South,188,4.3,15.6,100,0.00,,SKC,0.00,VWS V14.01,2013-04-08 11:01:00,
2013-04-08 07:02:00,65.5,65.5,30.01,South,174,1.2,15.6,100,0.00,,SKC,0.00,VWS V14.01,2013-04-08 11:02:00,
2013-04-08 07:04:00,65.4,65.5,30.01,North,359,2.7,15.6,100,0.00,,SKC,0.00,VWS V14.01,2013-04-08 11:04:00,
2013-04-08 07:07:00,65.6,65.6,30.01,South,180,0.0,15.6,100,0.00,,SKC,0.00,VWS V14.01,2013-04-08 11:07:00,
2013-04-08 07:10:00,65.5,65.5,30.01,SSW,201,0.0,15.6,100,0.00,,SKC,0.00,VWS V14.01,2013-04-08 11:10:00,
2013-04-08 07:12:00,65.6,65.6,30.01,SSW,204,3.4,15.6,100,0.00,,SKC,0.00,VWS V14.01,2013-04-08 11:12:00,
2013-04-08 07:15:00,65.6,65.6,30.01,SSW,202,5.2,15.6,100,0.00,,SKC,0.00,VWS V14.01,2013-04-08 11:15:00,
2013-04-08 07:17:00,65.6,65.6,30.01,North,359,0.0,15.6,100,0.00,,SKC,0.00,VWS V14.01,2013-04-08 11:17:00,
2013-04-08 07:18:00,65.6,65.6,30.02,SSW,200,3.9,15.6,100,0.00,,SKC,0.00,VWS V14.01,2013-04-08 11:18:00,
2013-04-08 07:20:00,65.7,65.7,30.02,South,186,5.7,15.6,100,0.00,,SKC,0.00,VWS V14.01,2013-04-08 11:20:00,
2013-04-08 07:22:00,65.6,65.6,30.02,SSE,162,4.7,15.6,100,0.00,,SKC,0.00,VWS V14.01,2013-04-08 11:22:00,
2013-04-08 07:23:00,65.6,65.6,30.02,SSE,167,1.7,15.6,100,0.00,,SKC,0.00,VWS V14.01,2013-04-08 11:23:00,
2013-04-08 07:26:00,65.6,65.6,30.02,SSE,153,0.0,15.6,100,0.00,,SKC,0.00,VWS V14.01,2013-04-08 11:26:00,
2013-04-08 07:27:00,65.6,65.6,30.02,South,174,3.9,15.6,100,0.00,,SKC,0.00,VWS V14.01,2013-04-08 11:27:00,
2013-04-08 07:28:00,65.6,65.6,30.02,SSE,160,1.1,15.6,100,0.00,,SKC,0.00,VWS V14.01,2013-04-08 11:28:00,
2013-04-08 07:31:00,65.6,65.6,30.02,South,183,6.0,15.6,100,0.00,,SKC,0.00,VWS V14.01,2013-04-08 11:31:00,
2013-04-08 07:32:00,65.6,65.6,30.01,South,186,4.5,15.6,100,0.00,,SKC,0.00,VWS V14.01,2013-04-08 11:32:00,
2013-04-08 07:33:00,65.6,65.6,30.02,South,180,3.3,15.6,100,0.00,,SKC,0.00,VWS V14.01,2013-04-08 11:33:00,
2013-04-08 07:36:00,65.5,65.5,30.01,South,190,5.6,15.6,100,0.00,,SKC,0.00,VWS V14.01,2013-04-08 11:36:00,
2013-04-08 07:37:00,65.6,65.6,30.02,South,190,1.6,15.6,100,0.00,,SKC,0.00,VWS V14.01,2013-04-08 11:37:00,
2013-04-08 07:38:00,65.6,65.6,30.02,South,190,3.4,15.6,100,0.00,,SKC,0.00,VWS V14.01,2013-04-08 11:38:00,
2013-04-08 07:39:00,65.6,65.6,30.02,South,173,0.0,15.6,100,0.00,,SKC,0.00,VWS V14.01,2013-04-08 11:39:00,
2013-04-08 07:41:00,65.6,65.6,30.01,South,181,4.1,15.6,100,0.00,,SKC,0.00,VWS V14.01,2013-04-08 11:41:00,
2013-04-08 07:42:00,65.5,65.6,30.02,South,190,4.5,15.6,100,0.00,,SKC,0.00,VWS V14.01,2013-04-08 11:42:00,
2013-04-08 07:43:00,65.6,65.6,30.02,South,186,3.8,15.6,100,0.00,,SKC,0.00,VWS V14.01,2013-04-08 11:43:00,
2013-04-08 07:44:00,65.5,65.5,30.02,South,186,2.8,15.6,100,0.00,,SKC,0.00,VWS V14.01,2013-04-08 11:44:00,
2013-04-08 07:47:00,65.6,65.6,30.02,South,174,0.0,15.6,100,0.00,,SKC,0.00,VWS V14.01,2013-04-08 11:47:00,
2013-04-08 07:48:00,65.6,65.6,30.02,South,174,0.0,15.6,100,0.00,,SKC,0.00,VWS V14.01,2013-04-08 11:48:00,
2013-04-08 07:50:00,65.5,65.5,30.02,South,180,5.3,15.6,100,0.00,,SKC,0.00,VWS V14.01,2013-04-08 11:50:00,
2013-04-08 07:52:00,65.4,65.4,30.02,South,187,2.7,15.6,100,0.00,,SKC,0.00,VWS V14.01,2013-04-08 11:52:00,
2013-04-08 07:53:00,65.5,65.4,30.02,South,174,1.9,15.6,100,0.00,,SKC,0.00,VWS V14.01,2013-04-08 11:53:00,
2013-04-08 07:55:00,65.5,65.5,30.02,South,179,1.5,15.6,100,0.00,,SKC,0.00,VWS V14.01,2013-04-08 11:55:00,
2013-04-08 07:58:00,65.4,65.4,30.02,North,359,4.3,15.6,100,0.00,,SKC,0.00,VWS V14.01,2013-04-08 11:58:00,
2013-04-08 08:00:00,65.6,65.6,30.02,South,184,2.4,15.6,100,0.00,,SKC,0.00,VWS V14.01,2013-04-08 12:00:00,
2013-04-08 08:03:00,65.6,65.6,30.02,South,188,5.0,15.6,100,0.00,,SKC,0.00,VWS V14.01,2013-04-08 12:03:00,
2013-04-08 08:06:00,65.6,65.6,30.03,South,179,2.5,15.6,100,0.01,,SKC,0.01,VWS V14.01,2013-04-08 12:06:00,
2013-04-08 08:08:00,65.7,65.7,30.03,SSE,162,7.6,15.6,100,0.01,,SKC,0.01,VWS V14.01,2013-04-08 12:08:00,
2013-04-08 08:10:00,65.6,65.6,30.02,North,359,6.9,15.6,100,0.01,,SKC,0.01,VWS V14.01,2013-04-08 12:10:00,
2013-04-08 08:11:00,65.7,65.7,30.03,SSW,211,3.0,15.6,100,0.01,,SKC,0.01,VWS V14.01,2013-04-08 12:11:00,
2013-04-08 08:13:00,65.8,65.7,30.03,North,359,5.3,15.6,100,0.01,,SKC,0.01,VWS V14.01,2013-04-08 12:13:00,
2013-04-08 08:14:00,65.8,65.8,30.03,SSW,193,5.4,15.6,100,0.01,,SKC,0.01,VWS V14.01,2013-04-08 12:14:00,
2013-04-08 08:15:00,65.8,65.8,30.03,SSW,198,2.4,15.6,100,0.01,,SKC,0.01,VWS V14.01,2013-04-08 12:15:00,
2013-04-08 08:17:00,65.8,65.8,30.03,SSW,208,5.7,15.6,100,0.01,,SKC,0.01,VWS V14.01,2013-04-08 12:17:00,
2013-04-08 08:18:00,65.9,65.9,30.03,South,172,2.0,15.6,100,0.01,,SKC,0.01,VWS V14.01,2013-04-08 12:18:00,
2013-04-08 08:19:00,65.9,65.9,30.03,South,187,1.5,15.6,100,0.01,,SKC,0.01,VWS V14.01,2013-04-08 12:19:00,
2013-04-08 08:20:00,65.9,65.9,30.02,South,177,2.0,15.6,100,0.01,,SKC,0.01,VWS V14.01,2013-04-08 12:20:00,
2013-04-08 08:23:00,65.9,65.9,30.03,SSE,163,3.1,15.6,100,0.01,,SKC,0.01,VWS V14.01,2013-04-08 12:23:00,
2013-04-08 08:24:00,65.9,65.9,30.03,South,172,2.9,15.6,100,0.01,,SKC,0.01,VWS V14.01,2013-04-08 12:24:00,
2013-04-08 08:25:00,65.9,65.9,30.03,South,170,3.4,15.6,100,0.01,,SKC,0.01,VWS V14.01,2013-04-08 12:25:00,
2013-04-08 08:28:00,66.0,66.0,30.03,South,173,2.5,15.6,100,0.01,,SKC,0.01,VWS V14.01,2013-04-08 12:28:00,
2013-04-08 08:29:00,66.0,66.0,30.04,SSE,167,4.1,15.6,100,0.01,,SKC,0.01,VWS V14.01,2013-04-08 12:29:00,
2013-04-08 08:30:00,66.0,66.0,30.04,SSE,167,8.8,15.6,100,0.01,,SKC,0.01,VWS V14.01,2013-04-08 12:30:00,
2013-04-08 08:33:00,66.1,66.1,30.04,South,183,1.4,15.6,100,0.01,,SKC,0.01,VWS V14.01,2013-04-08 12:33:00,
2013-04-08 08:35:00,66.2,66.2,30.04,SSE,162,4.0,15.6,100,0.01,,SKC,0.01,VWS V14.01,2013-04-08 12:35:00,
2013-04-08 08:39:00,66.2,66.2,30.03,South,177,2.4,15.6,100,0.01,,SKC,0.01,VWS V14.01,2013-04-08 12:39:00,
2013-04-08 08:40:00,66.3,66.3,30.04,South,170,1.1,15.6,100,0.01,,SKC,0.01,VWS V14.01,2013-04-08 12:40:00,
2013-04-08 08:44:00,66.6,66.6,30.03,South,184,4.7,15.6,100,0.01,,SKC,0.01,VWS V14.01,2013-04-08 12:44:00,
2013-04-08 08:45:00,66.6,66.6,30.04,South,184,3.7,15.6,100,0.01,,SKC,0.01,VWS V14.01,2013-04-08 12:45:00,
2013-04-08 08:47:00,66.7,66.7,30.03,South,170,4.5,15.6,100,0.01,,SKC,0.01,VWS V14.01,2013-04-08 12:47:00,
2013-04-08 08:50:00,66.7,66.7,30.03,North,359,0.0,15.6,100,0.01,,SKC,0.01,VWS V14.01,2013-04-08 12:50:00,
2013-04-08 08:52:00,66.7,66.7,30.02,SE,146,4.5,15.6,100,0.01,,SKC,0.01,VWS V14.01,2013-04-08 12:52:00,
2013-04-08 08:55:00,66.6,66.6,30.03,SSE,160,5.4,15.6,100,0.01,,SKC,0.01,VWS V14.01,2013-04-08 12:55:00,
2013-04-08 08:57:00,66.7,66.7,30.03,South,179,0.0,15.6,100,0.01,,SKC,0.01,VWS V14.01,2013-04-08 12:57:00,
2013-04-08 09:00:00,66.8,66.8,30.03,ENE,76,4.8,15.6,100,0.01,,SKC,0.01,VWS V14.01,2013-04-08 13:00:00,
2013-04-08 09:01:00,66.7,66.7,30.03,South,173,5.1,15.6,100,0.01,,SKC,0.01,VWS V14.01,2013-04-08 13:01:00,
2013-04-08 09:03:00,66.9,66.9,30.04,North,359,7.6,15.6,100,0.01,,SKC,0.01,VWS V14.01,2013-04-08 13:03:00,
2013-04-08 09:05:00,66.9,66.9,30.04,SSE,167,3.5,15.6,100,0.01,,SKC,0.01,VWS V14.01,2013-04-08 13:05:00,
2013-04-08 09:06:00,66.9,66.9,30.03,South,180,5.0,15.6,100,0.01,,SKC,0.01,VWS V14.01,2013-04-08 13:06:00,
2013-04-08 09:08:00,67.0,67.0,30.03,North,359,5.1,15.6,100,0.01,,SKC,0.01,VWS V14.01,2013-04-08 13:08:00,
2013-04-08 09:10:00,67.1,67.1,30.04,SE,124,9.5,15.6,100,0.01,,SKC,0.01,VWS V14.01,2013-04-08 13:10:00,
2013-04-08 09:11:00,67.1,67.1,30.03,South,177,12.6,15.6,100,0.01,,SKC,0.01,VWS V14.01,2013-04-08 13:11:00,
2013-04-08 09:13:00,67.1,67.1,30.03,South,180,5.0,15.6,100,0.01,,SKC,0.01,VWS V14.01,2013-04-08 13:13:00,
2013-04-08 09:15:00,67.1,67.1,30.04,North,359,4.7,16.8,100,0.01,,SKC,0.01,VWS V14.01,2013-04-08 13:15:00,
2013-04-08 09:16:00,67.1,67.1,30.04,SSW,194,5.9,16.8,100,0.01,,SKC,0.01,VWS V14.01,2013-04-08 13:16:00,
2013-04-08 09:17:00,67.2,67.2,30.04,SSW,201,5.1,16.8,100,0.01,,SKC,0.01,VWS V14.01,2013-04-08 13:17:00,
2013-04-08 09:18:00,67.1,67.1,30.03,SSE,156,6.2,16.8,100,0.01,,SKC,0.01,VWS V14.01,2013-04-08 13:18:00,
2013-04-08 09:20:00,67.2,67.2,30.04,SW,218,12.4,16.8,100,0.01,,SKC,0.01,VWS V14.01,2013-04-08 13:20:00,
2013-04-08 09:21:00,67.2,67.2,30.04,SSE,166,7.6,16.8,100,0.01,,SKC,0.01,VWS V14.01,2013-04-08 13:21:00,
2013-04-08 09:23:00,67.2,67.2,30.04,South,184,7.0,16.8,100,0.01,,SKC,0.01,VWS V14.01,2013-04-08 13:23:00,
2013-04-08 09:26:00,67.2,67.2,30.04,SSE,166,11.2,16.8,100,0.01,,SKC,0.01,VWS V14.01,2013-04-08 13:26:00,
2013-04-08 09:28:00,67.3,67.3,30.04,NNW,332,8.3,16.8,100,0.01,,SKC,0.01,VWS V14.01,2013-04-08 13:28:00,
2013-04-08 09:32:00,67.3,67.3,30.04,South,179,6.8,17.3,100,0.01,,SKC,0.01,VWS V14.01,2013-04-08 13:32:00,
2013-04-08 09:33:00,67.3,67.3,30.04,North,359,2.7,17.3,100,0.01,,SKC,0.01,VWS V14.01,2013-04-08 13:33:00,
2013-04-08 09:37:00,67.4,67.4,30.04,East,90,8.5,17.3,100,0.01,,SKC,0.01,VWS V14.01,2013-04-08 13:37:00,
2013-04-08 09:38:00,67.5,67.5,30.04,South,187,5.7,17.3,100,0.01,,SKC,0.01,VWS V14.01,2013-04-08 13:38:00,
2013-04-08 09:42:00,67.6,67.6,30.04,South,169,4.3,18.6,100,0.01,,SKC,0.01,VWS V14.01,2013-04-08 13:42:00,
2013-04-08 09:43:00,67.7,67.7,30.05,SSE,160,7.4,18.6,100,0.01,,SKC,0.01,VWS V14.01,2013-04-08 13:43:00,
2013-04-08 09:47:00,67.7,67.7,30.04,North,359,6.2,22.1,100,0.01,,SKC,0.01,VWS V14.01,2013-04-08 13:47:00,
2013-04-08 09:48:00,67.7,67.7,30.05,North,359,0.0,22.1,100,0.01,,SKC,0.01,VWS V14.01,2013-04-08 13:48:00,
2013-04-08 09:49:00,67.8,67.8,30.05,ESE,121,1.6,22.1,100,0.01,,SKC,0.01,VWS V14.01,2013-04-08 13:49:00,
2013-04-08 09:53:00,67.7,67.7,30.04,SSE,165,7.2,22.1,100,0.01,,SKC,0.01,VWS V14.01,2013-04-08 13:53:00,
2013-04-08 09:54:00,67.8,67.8,30.04,South,173,7.5,22.1,100,0.01,,SKC,0.01,VWS V14.01,2013-04-08 13:54:00,
2013-04-08 09:58:00,67.8,67.8,30.05,South,177,3.7,24.5,100,0.01,,SKC,0.01,VWS V14.01,2013-04-08 13:58:00,
2013-04-08 09:59:00,67.8,67.8,30.05,South,181,3.9,24.5,100,0.01,,SKC,0.01,VWS V14.01,2013-04-08 13:59:00,
2013-04-08 10:03:00,68.0,68.0,30.05,SSW,198,7.3,24.5,100,0.01,,SKC,0.01,VWS V14.01,2013-04-08 14:03:00,
2013-04-08 10:04:00,68.0,68.0,30.05,SSW,202,6.8,24.5,100,0.01,,SKC,0.01,VWS V14.01,2013-04-08 14:04:00,
2013-04-08 10:09:00,68.1,68.1,30.05,South,177,3.5,24.5,100,0.01,,SKC,0.01,VWS V14.01,2013-04-08 14:09:00,
2013-04-08 10:14:00,68.2,68.2,30.05,North,359,1.6,24.5,100,0.01,,SKC,0.01,VWS V14.01,2013-04-08 14:14:00,
2013-04-08 10:15:00,68.1,68.2,30.05,SSE,165,4.8,24.5,100,0.01,,SKC,0.01,VWS V14.01,2013-04-08 14:15:00,
2013-04-08 10:19:00,68.2,68.2,30.05,SSE,162,8.4,24.5,100,0.01,,SKC,0.01,VWS V14.01,2013-04-08 14:19:00,
2013-04-08 10:20:00,68.2,68.2,30.05,South,180,6.6,24.5,100,0.01,,SKC,0.01,VWS V14.01,2013-04-08 14:20:00,
2013-04-08 10:24:00,68.3,68.3,30.05,SSE,167,2.6,24.5,100,0.01,,SKC,0.01,VWS V14.01,2013-04-08 14:24:00,
2013-04-08 10:25:00,68.2,68.2,30.05,South,174,3.2,24.5,100,0.01,,SKC,0.01,VWS V14.01,2013-04-08 14:25:00,
2013-04-08 10:29:00,68.2,68.2,30.05,SSE,152,4.3,24.5,100,0.01,,SKC,0.01,VWS V14.01,2013-04-08 14:29:00,
2013-04-08 10:30:00,68.2,68.2,30.05,SSE,150,3.0,24.5,100,0.01,,SKC,0.01,VWS V14.01,2013-04-08 14:30:00,
2013-04-08 10:34:00,68.3,68.3,30.05,North,359,0.0,24.5,100,0.01,,SKC,0.01,VWS V14.01,2013-04-08 14:34:00,
2013-04-08 10:35:00,68.2,68.2,30.05,North,359,0.0,24.5,100,0.01,,SKC,0.01,VWS V14.01,2013-04-08 14:35:00,
2013-04-08 10:39:00,68.4,68.5,30.05,North,359,0.0,24.5,100,0.01,,SKC,0.01,VWS V14.01,2013-04-08 14:39:00,
2013-04-08 10:40:00,68.5,68.4,30.05,South,186,7.8,24.5,100,0.01,,SKC,0.01,VWS V14.01,2013-04-08 14:40:00,
2013-04-08 10:41:00,68.4,68.4,30.05,South,172,9.3,24.5,100,0.01,,SKC,0.01,VWS V14.01,2013-04-08 14:41:00,
2013-04-08 10:44:00,68.5,68.5,30.06,South,187,5.3,24.5,100,0.01,,SKC,0.01,VWS V14.01,2013-04-08 14:44:00,
2013-04-08 10:45:00,68.5,68.5,30.05,SSE,159,0.9,24.5,100,0.01,,SKC,0.01,VWS V14.01,2013-04-08 14:45:00,
2013-04-08 10:46:00,68.6,68.6,30.05,South,177,8.2,24.5,100,0.01,,SKC,0.01,VWS V14.01,2013-04-08 14:46:00,
2013-04-08 10:49:00,68.7,68.7,30.06,SSE,149,4.6,24.5,100,0.01,,SKC,0.01,VWS V14.01,2013-04-08 14:49:00,
2013-04-08 10:50:00,68.7,68.7,30.05,SSE,160,6.5,24.5,100,0.01,,SKC,0.01,VWS V14.01,2013-04-08 14:50:00,
2013-04-08 10:52:00,68.9,68.9,30.06,SSW,201,2.9,24.5,100,0.01,,SKC,0.01,VWS V14.01,2013-04-08 14:52:00,
2013-04-08 10:55:00,69.0,69.0,30.06,South,181,5.2,24.5,100,0.01,,SKC,0.01,VWS V14.01,2013-04-08 14:55:00,
2013-04-08 10:56:00,69.0,69.0,30.06,SSW,194,2.0,24.5,100,0.01,,SKC,0.01,VWS V14.01,2013-04-08 14:56:00,
2013-04-08 10:57:00,69.1,69.1,30.06,SSE,155,8.9,24.5,100,0.01,,SKC,0.01,VWS V14.01,2013-04-08 14:57:00,
2013-04-08 11:00:00,69.1,69.1,30.06,South,190,6.1,24.5,100,0.01,,SKC,0.01,VWS V14.01,2013-04-08 15:00:00,
2013-04-08 11:01:00,69.1,69.1,30.06,SW,219,3.0,24.5,100,0.01,,SKC,0.01,VWS V14.01,2013-04-08 15:01:00,
2013-04-08 11:02:00,69.3,69.3,30.06,South,179,5.7,24.5,100,0.01,,SKC,0.01,VWS V14.01,2013-04-08 15:02:00,
2013-04-08 11:05:00,69.3,69.3,30.06,ESE,104,5.0,24.5,100,0.01,,SKC,0.01,VWS V14.01,2013-04-08 15:05:00,
2013-04-08 11:06:00,69.4,69.4,30.06,SSW,194,6.5,24.5,100,0.01,,SKC,0.01,VWS V14.01,2013-04-08 15:06:00,
2013-04-08 11:07:00,69.4,69.4,30.07,SSE,162,4.9,24.5,100,0.01,,SKC,0.01,VWS V14.01,2013-04-08 15:07:00,
2013-04-08 11:10:00,69.3,69.3,30.07,SE,138,5.8,24.5,100,0.01,,SKC,0.01,VWS V14.01,2013-04-08 15:10:00,
2013-04-08 11:11:00,69.4,69.4,30.06,SSW,200,5.1,24.5,100,0.01,,SKC,0.01,VWS V14.01,2013-04-08 15:11:00,
2013-04-08 11:12:00,69.4,69.4,30.06,SSW,210,4.7,24.5,100,0.01,,SKC,0.01,VWS V14.01,2013-04-08 15:12:00,
2013-04-08 11:15:00,69.4,69.4,30.07,SSW,211,9.4,24.5,100,0.01,,SKC,0.01,VWS V14.01,2013-04-08 15:15:00,
2013-04-08 11:16:00,69.5,69.5,30.07,SSE,167,1.1,24.5,100,0.01,,SKC,0.01,VWS V14.01,2013-04-08 15:16:00,
2013-04-08 11:17:00,69.4,69.4,30.07,SW,221,8.3,24.5,100,0.01,,SKC,0.01,VWS V14.01,2013-04-08 15:17:00,
2013-04-08 11:18:00,69.4,69.4,30.06,SSE,163,0.7,24.5,100,0.01,,SKC,0.01,VWS V14.01,2013-04-08 15:18:00,
2013-04-08 11:20:00,69.5,69.5,30.06,SSE,162,8.5,24.5,100,0.01,,SKC,0.01,VWS V14.01,2013-04-08 15:20:00,
2013-04-08 11:22:00,69.6,69.6,30.07,SSE,160,5.8,24.5,100,0.01,,SKC,0.01,VWS V14.01,2013-04-08 15:22:00,
2013-04-08 11:23:00,69.6,69.6,30.06,South,173,3.0,24.5,100,0.01,,SKC,0.01,VWS V14.01,2013-04-08 15:23:00,
2013-04-08 11:25:00,69.9,69.9,30.06,SSE,153,5.0,24.5,100,0.01,,SKC,0.01,VWS V14.01,2013-04-08 15:25:00,
2013-04-08 11:27:00,69.9,69.9,30.07,SSW,200,8.3,24.5,100,0.01,,SKC,0.01,VWS V14.01,2013-04-08 15:27:00,
2013-04-08 11:28:00,70.0,70.0,30.06,South,169,7.6,24.5,100,0.01,,SKC,0.01,VWS V14.01,2013-04-08 15:28:00,
2013-04-08 11:31:00,70.1,70.1,30.06,South,174,6.0,24.5,100,0.01,,SKC,0.01,VWS V14.01,2013-04-08 15:31:00,
2013-04-08 11:32:00,70.1,70.1,30.06,SSE,163,4.1,24.5,100,0.01,,SKC,0.01,VWS V14.01,2013-04-08 15:32:00,
2013-04-08 11:33:00,70.2,70.1,30.07,SE,146,6.8,24.5,100,0.01,,SKC,0.01,VWS V14.01,2013-04-08 15:33:00,
2013-04-08 11:36:00,70.2,70.2,30.07,SSW,200,4.2,24.5,100,0.01,,SKC,0.01,VWS V14.01,2013-04-08 15:36:00,
2013-04-08 11:37:00,70.2,70.3,30.07,SSW,201,5.7,24.5,100,0.01,,SKC,0.01,VWS V14.01,2013-04-08 15:37:00,
2013-04-08 11:38:00,70.3,70.4,30.07,SSW,198,4.6,24.5,100,0.01,,SKC,0.01,VWS V14.01,2013-04-08 15:38:00,
2013-04-08 11:41:00,70.4,70.4,30.08,North,359,0.3,24.5,100,0.01,,SKC,0.01,VWS V14.01,2013-04-08 15:41:00,
2013-04-08 11:42:00,70.3,70.3,30.07,SSE,160,8.6,24.5,100,0.01,,SKC,0.01,VWS V14.01,2013-04-08 15:42:00,
2013-04-08 11:43:00,70.3,70.3,30.08,SSE,163,3.0,24.5,100,0.01,,SKC,0.01,VWS V14.01,2013-04-08 15:43:00,
2013-04-08 11:46:00,70.5,70.5,30.07,SSW,210,9.6,24.5,100,0.01,,SKC,0.01,VWS V14.01,2013-04-08 15:46:00,
2013-04-08 11:47:00,70.5,70.5,30.08,SSE,160,6.9,24.5,100,0.01,,SKC,0.01,VWS V14.01,2013-04-08 15:47:00,
2013-04-08 11:48:00,70.6,70.6,30.08,SSE,162,3.3,24.5,100,0.01,,SKC,0.01,VWS V14.01,2013-04-08 15:48:00,
2013-04-08 11:52:00,70.8,70.8,30.08,SW,215,4.0,24.5,100,0.01,,SKC,0.01,VWS V14.01,2013-04-08 15:52:00,
2013-04-08 11:53:00,70.8,70.8,30.07,SE,136,4.4,24.5,100,0.01,,SKC,0.01,VWS V14.01,2013-04-08 15:53:00,
2013-04-08 11:58:00,70.8,70.8,30.07,South,172,2.2,24.5,100,0.01,,SKC,0.01,VWS V14.01,2013-04-08 15:58:00,
2013-04-08 12:03:00,71.1,71.1,30.08,SSE,155,7.6,24.5,100,0.01,,SKC,0.01,VWS V14.01,2013-04-08 16:03:00,
2013-04-08 12:04:00,71.2,71.2,30.07,SSW,200,6.5,24.5,100,0.01,,SKC,0.01,VWS V14.01,2013-04-08 16:04:00,
2013-04-08 12:08:00,71.3,71.3,30.08,SSE,166,7.9,24.5,100,0.01,,SKC,0.01,VWS V14.01,2013-04-08 16:08:00,
2013-04-08 12:09:00,71.2,71.2,30.08,SSE,166,3.9,24.5,100,0.01,,SKC,0.01,VWS V14.01,2013-04-08 16:09:00,
2013-04-08 12:10:00,71.2,71.2,30.08,South,183,4.4,24.5,100,0.01,,SKC,0.01,VWS V14.01,2013-04-08 16:10:00,
2013-04-08 12:13:00,71.5,71.5,30.08,South,176,7.0,24.5,100,0.01,,SKC,0.01,VWS V14.01,2013-04-08 16:13:00,
2013-04-08 12:14:00,71.5,71.6,30.08,North,359,6.0,24.5,100,0.01,,SKC,0.01,VWS V14.01,2013-04-08 16:14:00,
2013-04-08 12:15:00,71.6,71.6,30.08,South,187,3.0,24.5,100,0.01,,SKC,0.01,VWS V14.01,2013-04-08 16:15:00,
2013-04-08 12:18:00,71.6,71.6,30.07,South,188,7.5,24.5,100,0.01,,SKC,0.01,VWS V14.01,2013-04-08 16:18:00,
2013-04-08 12:20:00,71.6,71.7,30.07,South,191,9.3,24.5,100,0.01,,SKC,0.01,VWS V14.01,2013-04-08 16:20:00,
2013-04-08 12:23:00,71.7,71.7,30.08,SSE,162,10.1,24.5,100,0.01,,SKC,0.01,VWS V14.01,2013-04-08 16:23:00,
2013-04-08 12:25:00,71.8,71.8,30.07,South,183,7.0,24.5,100,0.01,,SKC,0.01,VWS V14.01,2013-04-08 16:25:00,
2013-04-08 12:28:00,71.8,71.8,30.08,South,188,5.7,24.5,100,0.01,,SKC,0.01,VWS V14.01,2013-04-08 16:28:00,
2013-04-08 12:30:00,71.6,71.6,30.07,SSE,149,4.3,24.5,100,0.01,,SKC,0.01,VWS V14.01,2013-04-08 16:30:00,
2013-04-08 12:33:00,71.6,71.6,30.07,South,186,5.4,24.5,100,0.01,,SKC,0.01,VWS V14.01,2013-04-08 16:33:00,
2013-04-08 12:34:00,71.6,71.6,30.07,SW,214,5.9,24.5,100,0.01,,SKC,0.01,VWS V14.01,2013-04-08 16:34:00,
2013-04-08 12:35:00,71.6,71.6,30.07,SW,226,1.6,24.5,100,0.01,,SKC,0.01,VWS V14.01,2013-04-08 16:35:00,
2013-04-08 12:36:00,71.6,71.6,30.08,SSW,211,3.2,24.5,100,0.01,,SKC,0.01,VWS V14.01,2013-04-08 16:36:00,
2013-04-08 12:38:00,71.8,71.8,30.07,SSW,208,4.2,24.5,100,0.01,,SKC,0.01,VWS V14.01,2013-04-08 16:38:00,
2013-04-08 12:39:00,71.7,71.7,30.07,South,172,2.9,24.5,100,0.01,,SKC,0.01,VWS V14.01,2013-04-08 16:39:00,
2013-04-08 12:40:00,71.7,71.7,30.08,South,181,9.4,24.5,100,0.01,,SKC,0.01,VWS V14.01,2013-04-08 16:40:00,
2013-04-08 12:41:00,71.7,71.7,30.07,SSW,193,7.4,24.5,100,0.01,,SKC,0.01,VWS V14.01,2013-04-08 16:41:00,
2013-04-08 12:43:00,71.8,71.8,30.08,North,359,0.0,24.5,100,0.01,,SKC,0.01,VWS V14.01,2013-04-08 16:43:00,
2013-04-08 12:45:00,71.8,71.8,30.07,North,359,7.1,24.5,100,0.01,,SKC,0.01,VWS V14.01,2013-04-08 16:45:00,
2013-04-08 12:46:00,71.8,71.8,30.07,North,359,0.0,24.5,100,0.01,,SKC,0.01,VWS V14.01,2013-04-08 16:46:00,
2013-04-08 12:48:00,72.0,72.0,30.07,North,359,0.4,24.5,100,0.01,,SKC,0.01,VWS V14.01,2013-04-08 16:48:00,
2013-04-08 12:51:00,71.9,71.9,30.08,North,359,0.0,24.5,100,0.01,,SKC,0.01,VWS V14.01,2013-04-08 16:51:00,
2013-04-08 12:52:00,72.0,72.0,30.08,North,359,0.0,24.5,100,0.01,,SKC,0.01,VWS V14.01,2013-04-08 16:52:00,
2013-04-08 12:53:00,72.2,72.2,30.08,South,187,0.0,24.5,100,0.01,,SKC,0.01,VWS V14.01,2013-04-08 16:53:00,
2013-04-08 12:56:00,72.2,72.2,30.08,SW,214,6.3,24.5,100,0.01,,SKC,0.01,VWS V14.01,2013-04-08 16:56:00,
2013-04-08 12:57:00,72.3,72.3,30.08,South,181,5.3,24.5,100,0.01,,SKC,0.01,VWS V14.01,2013-04-08 16:57:00,
2013-04-08 12:59:00,72.3,72.3,30.08,South,186,0.0,24.5,100,0.01,,SKC,0.01,VWS V14.01,2013-04-08 16:59:00,
2013-04-08 13:01:00,72.5,72.5,30.08,SW,214,5.0,24.5,100,0.01,,SKC,0.01,VWS V14.01,2013-04-08 17:01:00,
2013-04-08 13:02:00,72.5,72.5,30.08,North,359,0.0,24.5,100,0.01,,SKC,0.01,VWS V14.01,2013-04-08 17:02:00,
2013-04-08 13:04:00,72.4,72.3,30.08,North,359,0.6,24.5,100,0.01,,SKC,0.01,VWS V14.01,2013-04-08 17:04:00,
2013-04-08 13:06:00,72.5,72.4,30.08,North,359,4.1,24.5,100,0.01,,SKC,0.01,VWS V14.01,2013-04-08 17:06:00,
2013-04-08 13:07:00,72.5,72.6,30.08,North,359,0.0,24.5,100,0.01,,SKC,0.01,VWS V14.01,2013-04-08 17:07:00,
2013-04-08 13:10:00,72.3,72.2,30.08,SSW,201,6.7,24.5,100,0.01,,SKC,0.01,VWS V14.01,2013-04-08 17:10:00,
2013-04-08 13:11:00,72.3,72.2,30.08,South,177,4.5,24.5,100,0.01,,SKC,0.01,VWS V14.01,2013-04-08 17:11:00,
2013-04-08 13:12:00,72.1,72.1,30.08,South,173,0.2,24.5,100,0.01,,SKC,0.01,VWS V14.01,2013-04-08 17:12:00,
2013-04-08 13:16:00,71.9,71.9,30.08,SSW,212,8.7,24.5,100,0.01,,SKC,0.01,VWS V14.01,2013-04-08 17:16:00,
2013-04-08 13:17:00,71.9,71.9,30.08,South,188,7.1,24.5,100,0.01,,SKC,0.01,VWS V14.01,2013-04-08 17:17:00,
2013-04-08 13:21:00,72.0,72.0,30.08,North,359,0.8,24.5,100,0.01,,SKC,0.01,VWS V14.01,2013-04-08 17:21:00,
2013-04-08 13:22:00,71.9,71.9,30.08,South,184,8.9,24.5,100,0.01,,SKC,0.01,VWS V14.01,2013-04-08 17:22:00,
2013-04-08 13:23:00,71.8,71.8,30.08,SSW,197,7.5,24.5,100,0.01,,SKC,0.01,VWS V14.01,2013-04-08 17:23:00,
2013-04-08 13:26:00,71.7,71.7,30.08,SSW,202,9.1,24.5,100,0.01,,SKC,0.01,VWS V14.01,2013-04-08 17:26:00,
2013-04-08 13:28:00,71.6,71.6,30.08,South,190,9.6,24.5,100,0.01,,SKC,0.01,VWS V14.01,2013-04-08 17:28:00,
2013-04-08 13:31:00,71.7,71.7,30.08,SSE,153,5.7,24.5,100,0.01,,SKC,0.01,VWS V14.01,2013-04-08 17:31:00,
2013-04-08 13:32:00,71.7,71.7,30.08,South,187,5.7,24.5,100,0.01,,SKC,0.01,VWS V14.01,2013-04-08 17:32:00,
2013-04-08 13:33:00,71.8,71.8,30.08,SSE,166,9.1,24.5,100,0.01,,SKC,0.01,VWS V14.01,2013-04-08 17:33:00,
2013-04-08 13:37:00,72.0,72.0,30.08,SSE,160,5.0,24.5,100,0.01,,SKC,0.01,VWS V14.01,2013-04-08 17:37:00,
2013-04-08 13:38:00,72.0,72.0,30.08,South,169,3.0,24.5,100,0.01,,SKC,0.01,VWS V14.01,2013-04-08 17:38:00,
2013-04-08 13:42:00,71.6,71.6,30.08,South,186,4.8,24.5,100,0.01,,SKC,0.01,VWS V14.01,2013-04-08 17:42:00,
2013-04-08 13:43:00,71.6,71.6,30.08,SSE,166,7.0,24.5,100,0.01,,SKC,0.01,VWS V14.01,2013-04-08 17:43:00,
2013-04-08 13:47:00,71.5,71.5,30.08,South,183,0.8,24.5,100,0.01,,SKC,0.01,VWS V14.01,2013-04-08 17:47:00,
2013-04-08 13:48:00,71.5,71.5,30.08,South,190,6.8,24.5,100,0.01,,SKC,0.01,VWS V14.01,2013-04-08 17:48:00,
2013-04-08 13:52:00,71.4,71.4,30.07,SSE,166,4.5,24.5,100,0.01,,SKC,0.01,VWS V14.01,2013-04-08 17:52:00,
2013-04-08 13:53:00,71.4,71.4,30.08,SSW,197,4.3,24.5,100,0.01,,SKC,0.01,VWS V14.01,2013-04-08 17:53:00,
2013-04-08 13:57:00,71.7,71.7,30.08,SSE,163,3.1,24.5,100,0.01,,SKC,0.01,VWS V14.01,2013-04-08 17:57:00,
2013-04-08 13:59:00,72.0,72.0,30.07,SSE,158,7.3,24.5,100,0.01,,SKC,0.01,VWS V14.01,2013-04-08 17:59:00,
2013-04-08 14:02:00,72.4,72.4,30.07,South,176,3.0,24.5,100,0.01,,SKC,0.01,VWS V14.01,2013-04-08 18:02:00,
2013-04-08 14:04:00,72.9,72.9,30.07,South,190,9.7,24.5,100,0.01,,SKC,0.01,VWS V14.01,2013-04-08 18:04:00,
2013-04-08 14:05:00,73.0,73.0,30.07,South,180,2.8,24.5,100,0.01,,SKC,0.01,VWS V14.01,2013-04-08 18:05:00,
2013-04-08 14:07:00,73.0,73.0,30.07,South,169,6.4,24.5,100,0.01,,SKC,0.01,VWS V14.01,2013-04-08 18:07:00,
2013-04-08 14:08:00,73.0,72.9,30.07,South,174,9.6,24.5,100,0.01,,SKC,0.01,VWS V14.01,2013-04-08 18:08:00,
2013-04-08 14:09:00,72.7,72.6,30.07,SSE,160,7.4,24.5,100,0.01,,SKC,0.01,VWS V14.01,2013-04-08 18:09:00,
2013-04-08 14:10:00,72.8,72.7,30.07,SSE,160,5.3,24.5,100,0.01,,SKC,0.01,VWS V14.01,2013-04-08 18:10:00,
2013-04-08 14:12:00,72.6,72.5,30.07,SSW,202,6.2,24.5,100,0.01,,SKC,0.01,VWS V14.01,2013-04-08 18:12:00,
2013-04-08 14:13:00,72.5,72.5,30.07,SW,218,4.9,24.5,100,0.01,,SKC,0.01,VWS V14.01,2013-04-08 18:13:00,
2013-04-08 14:14:00,72.3,72.3,30.06,SSE,166,9.6,24.5,100,0.01,,SKC,0.01,VWS V14.01,2013-04-08 18:14:00,
2013-04-08 14:15:00,72.2,72.2,30.07,South,170,9.6,24.5,100,0.01,,SKC,0.01,VWS V14.01,2013-04-08 18:15:00,
2013-04-08 14:17:00,72.0,72.0,30.06,SSW,194,6.2,24.5,100,0.01,,SKC,0.01,VWS V14.01,2013-04-08 18:17:00,
2013-04-08 14:18:00,72.0,72.0,30.06,South,191,9.3,24.5,100,0.01,,SKC,0.01,VWS V14.01,2013-04-08 18:18:00,
2013-04-08 14:19:00,71.9,71.9,30.07,SSW,197,2.7,24.5,100,0.01,,SKC,0.01,VWS V14.01,2013-04-08 18:19:00,
2013-04-08 14:20:00,71.9,71.9,30.07,SSE,152,5.2,24.5,100,0.01,,SKC,0.01,VWS V14.01,2013-04-08 18:20:00,
2013-04-08 14:22:00,71.9,71.9,30.06,SSW,202,9.3,24.5,100,0.01,,SKC,0.01,VWS V14.01,2013-04-08 18:22:00,
2013-04-08 14:23:00,71.9,71.9,30.06,SSE,165,4.2,24.5,100,0.01,,SKC,0.01,VWS V14.01,2013-04-08 18:23:00,
2013-04-08 14:24:00,71.9,71.9,30.06,South,169,4.9,24.5,100,0.01,,SKC,0.01,VWS V14.01,2013-04-08 18:24:00,
2013-04-08 14:25:00,71.9,71.9,30.06,South,187,2.7,24.5,100,0.01,,SKC,0.01,VWS V14.01,2013-04-08 18:25:00,
2013-04-08 14:27:00,71.9,71.9,30.06,South,177,10.3,24.5,100,0.01,,SKC,0.01,VWS V14.01,2013-04-08 18:27:00,
2013-04-08 14:28:00,71.9,71.9,30.06,South,176,4.2,24.5,100,0.01,,SKC,0.01,VWS V14.01,2013-04-08 18:28:00,
2013-04-08 14:29:00,71.8,71.8,30.06,South,186,7.3,24.5,100,0.01,,SKC,0.01,VWS V14.01,2013-04-08 18:29:00,
2013-04-08 14:30:00,71.9,71.9,30.06,South,181,7.4,24.5,100,0.01,,SKC,0.01,VWS V14.01,2013-04-08 18:30:00,
2013-04-08 14:32:00,72.0,72.0,30.06,South,183,10.7,24.5,100,0.01,,SKC,0.01,VWS V14.01,2013-04-08 18:32:00,
2013-04-08 14:33:00,72.0,72.0,30.06,SSE,150,12.1,24.5,100,0.01,,SKC,0.01,VWS V14.01,2013-04-08 18:33:00,
2013-04-08 14:35:00,71.9,71.9,30.06,SSE,153,7.0,24.5,100,0.01,,SKC,0.01,VWS V14.01,2013-04-08 18:35:00,
2013-04-08 14:37:00,72.0,72.1,30.06,SSE,165,3.9,24.5,100,0.01,,SKC,0.01,VWS V14.01,2013-04-08 18:37:00,
2013-04-08 14:38:00,72.1,72.1,30.06,SW,219,7.6,24.5,100,0.01,,SKC,0.01,VWS V14.01,2013-04-08 18:38:00,
2013-04-08 14:40:00,72.2,72.2,30.07,SSE,166,7.7,24.5,100,0.01,,SKC,0.01,VWS V14.01,2013-04-08 18:40:00,
2013-04-08 14:41:00,72.2,72.2,30.06,South,172,9.6,24.5,100,0.01,,SKC,0.01,VWS V14.01,2013-04-08 18:41:00,
2013-04-08 14:42:00,72.1,72.1,30.06,SSW,195,5.5,24.5,100,0.01,,SKC,0.01,VWS V14.01,2013-04-08 18:42:00,
2013-04-08 14:43:00,72.1,72.2,30.06,South,187,5.2,24.5,100,0.01,,SKC,0.01,VWS V14.01,2013-04-08 18:43:00,
2013-04-08 14:45:00,72.0,72.0,30.06,South,188,10.0,24.5,100,0.01,,SKC,0.01,VWS V14.01,2013-04-08 18:45:00,
2013-04-08 14:46:00,72.0,72.1,30.06,SSE,158,7.2,24.5,100,0.01,,SKC,0.01,VWS V14.01,2013-04-08 18:46:00,
2013-04-08 14:47:00,71.9,71.9,30.06,South,186,0.0,24.5,100,0.01,,SKC,0.01,VWS V14.01,2013-04-08 18:47:00,
2013-04-08 14:48:00,71.9,71.9,30.06,South,186,0.0,24.5,100,0.01,,SKC,0.01,VWS V14.01,2013-04-08 18:48:00,
2013-04-08 14:50:00,71.7,71.7,30.05,SSW,212,0.9,24.5,100,0.01,,SKC,0.01,VWS V14.01,2013-04-08 18:50:00,
2013-04-08 14:51:00,71.7,71.7,30.06,North,359,0.0,24.5,100,0.01,,SKC,0.01,VWS V14.01,2013-04-08 18:51:00,
2013-04-08 14:52:00,71.6,71.6,30.05,North,359,0.0,24.5,100,0.01,,SKC,0.01,VWS V14.01,2013-04-08 18:52:00,
2013-04-08 14:53:00,71.6,71.6,30.05,North,359,0.0,24.5,100,0.01,,SKC,0.01,VWS V14.01,2013-04-08 18:53:00,
2013-04-08 14:55:00,71.5,71.5,30.05,North,359,0.0,24.5,100,0.01,,SKC,0.01,VWS V14.01,2013-04-08 18:55:00,
2013-04-08 14:57:00,71.5,71.5,30.05,North,359,0.0,24.5,100,0.01,,SKC,0.01,VWS V14.01,2013-04-08 18:57:00,
2013-04-08 14:58:00,71.5,71.5,30.05,North,359,0.0,24.5,100,0.01,,SKC,0.01,VWS V14.01,2013-04-08 18:58:00,
2013-04-08 15:00:00,71.5,71.5,30.05,North,359,0.0,24.5,100,0.01,,SKC,0.01,VWS V14.01,2013-04-08 19:00:00,
2013-04-08 15:02:00,71.5,71.5,30.05,North,359,0.0,24.5,100,0.01,,SKC,0.01,VWS V14.01,2013-04-08 19:02:00,
2013-04-08 15:03:00,71.5,71.5,30.05,North,359,0.0,24.5,100,0.01,,SKC,0.01,VWS V14.01,2013-04-08 19:03:00,
2013-04-08 15:05:00,71.6,71.6,30.05,North,359,8.9,24.5,100,0.01,,SKC,0.01,VWS V14.01,2013-04-08 19:05:00,
2013-04-08 15:08:00,71.7,71.7,30.05,North,359,9.6,24.5,100,0.01,,SKC,0.01,VWS V14.01,2013-04-08 19:08:00,
2013-04-08 15:09:00,71.7,71.7,30.05,South,191,0.0,24.5,100,0.01,,SKC,0.01,VWS V14.01,2013-04-08 19:09:00,
2013-04-08 15:11:00,72.1,72.1,30.05,SW,214,8.5,24.5,100,0.01,,SKC,0.01,VWS V14.01,2013-04-08 19:11:00,
2013-04-08 15:13:00,72.0,72.0,30.05,South,177,4.9,24.5,100,0.01,,SKC,0.01,VWS V14.01,2013-04-08 19:13:00,
2013-04-08 15:15:00,72.1,72.1,30.05,North,359,0.2,24.5,100,0.01,,SKC,0.01,VWS V14.01,2013-04-08 19:15:00,
2013-04-08 15:17:00,72.1,72.2,30.05,South,180,1.7,24.5,100,0.01,,SKC,0.01,VWS V14.01,2013-04-08 19:17:00,
2013-04-08 15:18:00,72.2,72.2,30.05,North,359,5.1,24.5,100,0.01,,SKC,0.01,VWS V14.01,2013-04-08 19:18:00,
2013-04-08 15:21:00,72.2,72.2,30.05,North,359,7.3,24.5,100,0.01,,SKC,0.01,VWS V14.01,2013-04-08 19:21:00,
2013-04-08 15:22:00,72.1,72.1,30.05,South,188,3.1,24.5,100,0.01,,SKC,0.01,VWS V14.01,2013-04-08 19:22:00,
2013-04-08 15:23:00,72.3,72.3,30.05,South,184,3.6,24.5,100,0.01,,SKC,0.01,VWS V14.01,2013-04-08 19:23:00,
2013-04-08 15:24:00,72.2,72.3,30.05,SSW,195,3.5,24.5,100,0.01,,SKC,0.01,VWS V14.01,2013-04-08 19:24:00,
2013-04-08 15:26:00,71.9,71.9,30.05,South,184,8.7,24.5,100,0.01,,SKC,0.01,VWS V14.01,2013-04-08 19:26:00,
2013-04-08 15:27:00,71.8,71.8,30.05,South,179,6.3,24.5,100,0.01,,SKC,0.01,VWS V14.01,2013-04-08 19:27:00,
2013-04-08 15:28:00,71.6,71.6,30.05,SSE,167,0.0,24.5,100,0.01,,SKC,0.01,VWS V14.01,2013-04-08 19:28:00,
2013-04-08 15:29:00,71.6,71.6,30.05,SSE,167,0.0,24.5,100,0.01,,SKC,0.01,VWS V14.01,2013-04-08 19:29:00,
2013-04-08 15:31:00,71.5,71.5,30.05,SSE,152,9.6,24.5,100,0.01,,SKC,0.01,VWS V14.01,2013-04-08 19:31:00,
2013-04-08 15:32:00,71.4,71.4,30.05,North,359,0.4,24.5,100,0.01,,SKC,0.01,VWS V14.01,2013-04-08 19:32:00,
2013-04-08 15:33:00,71.2,71.2,30.05,South,179,9.1,24.5,100,0.01,,SKC,0.01,VWS V14.01,2013-04-08 19:33:00,
2013-04-08 15:34:00,71.0,71.0,30.05,North,359,11.4,24.5,100,0.01,,SKC,0.01,VWS V14.01,2013-04-08 19:34:00,
2013-04-08 15:37:00,70.7,70.7,30.05,South,190,10.9,24.5,100,0.01,,SKC,0.01,VWS V14.01,2013-04-08 19:37:00,
2013-04-08 15:40:00,71.0,71.0,30.05,SSE,165,2.4,24.5,100,0.01,,SKC,0.01,VWS V14.01,2013-04-08 19:40:00,
2013-04-08 15:42:00,71.2,71.2,30.05,SSW,197,3.5,24.5,100,0.01,,SKC,0.01,VWS V14.01,2013-04-08 19:42:00,
2013-04-08 15:45:00,71.4,71.4,30.05,South,181,0.2,24.5,100,0.02,,SKC,0.02,VWS V14.01,2013-04-08 19:45:00,
2013-04-08 15:47:00,71.4,71.4,30.05,SW,219,6.3,24.5,100,0.02,,SKC,0.02,VWS V14.01,2013-04-08 19:47:00,
2013-04-08 15:50:00,71.4,71.4,30.05,SSE,153,13.9,24.5,100,0.02,,SKC,0.02,VWS V14.01,2013-04-08 19:50:00,
2013-04-08 15:52:00,71.3,71.3,30.05,SSW,193,9.8,24.5,100,0.02,,SKC,0.02,VWS V14.01,2013-04-08 19:52:00,
2013-04-08 15:55:00,71.4,71.4,30.04,South,177,5.4,24.5,100,0.02,,SKC,0.02,VWS V14.01,2013-04-08 19:55:00,
2013-04-08 15:57:00,71.3,71.3,30.04,SE,146,8.7,24.5,100,0.02,,SKC,0.02,VWS V14.01,2013-04-08 19:57:00,
2013-04-08 15:58:00,71.2,71.2,30.04,SSE,159,0.2,24.5,100,0.02,,SKC,0.02,VWS V14.01,2013-04-08 19:58:00,
2013-04-08 16:00:00,71.1,71.1,30.04,SW,218,7.1,24.5,100,0.02,,SKC,0.02,VWS V14.01,2013-04-08 20:00:00,
2013-04-08 16:01:00,71.1,71.1,30.04,South,174,2.5,24.5,100,0.02,,SKC,0.02,VWS V14.01,2013-04-08 20:01:00,
2013-04-08 16:02:00,71.0,71.0,30.04,SSW,205,2.5,24.5,100,0.02,,SKC,0.02,VWS V14.01,2013-04-08 20:02:00,
2013-04-08 16:03:00,71.0,71.0,30.04,SSW,205,2.5,24.5,100,0.02,,SKC,0.02,VWS V14.01,2013-04-08 20:03:00,
2013-04-08 16:05:00,71.0,71.0,30.04,South,180,7.5,24.5,100,0.02,,SKC,0.02,VWS V14.01,2013-04-08 20:05:00,
2013-04-08 16:06:00,70.9,70.9,30.04,SSE,163,3.5,24.5,100,0.02,,SKC,0.02,VWS V14.01,2013-04-08 20:06:00,
2013-04-08 16:08:00,71.0,71.0,30.04,South,177,8.2,24.5,100,0.02,,SKC,0.02,VWS V14.01,2013-04-08 20:08:00,
2013-04-08 16:11:00,71.4,71.4,30.04,SSE,165,3.6,24.5,100,0.02,,SKC,0.02,VWS V14.01,2013-04-08 20:11:00,
2013-04-08 16:13:00,71.5,71.5,30.03,SW,231,0.0,24.5,100,0.02,,SKC,0.02,VWS V14.01,2013-04-08 20:13:00,
2013-04-08 16:16:00,71.7,71.7,30.03,South,174,6.8,24.5,100,0.02,,SKC,0.02,VWS V14.01,2013-04-08 20:16:00,
2013-04-08 16:17:00,71.6,71.6,30.03,SSE,150,6.0,24.5,100,0.02,,SKC,0.02,VWS V14.01,2013-04-08 20:17:00,
2013-04-08 16:18:00,71.7,71.6,30.03,SE,143,3.2,24.5,100,0.02,,SKC,0.02,VWS V14.01,2013-04-08 20:18:00,
2013-04-08 16:22:00,71.5,71.5,30.03,North,359,0.0,24.5,100,0.02,,SKC,0.02,VWS V14.01,2013-04-08 20:22:00,
2013-04-08 16:23:00,71.3,71.3,30.03,North,359,0.0,24.5,100,0.02,,SKC,0.02,VWS V14.01,2013-04-08 20:23:00,
2013-04-08 16:27:00,71.4,71.4,30.03,North,359,0.0,24.5,100,0.02,,SKC,0.02,VWS V14.01,2013-04-08 20:27:00,
2013-04-08 16:28:00,71.4,71.4,30.03,North,359,0.0,24.5,100,0.02,,SKC,0.02,VWS V14.01,2013-04-08 20:28:00,
2013-04-08 16:32:00,71.4,71.4,30.03,North,359,0.0,24.5,100,0.02,,SKC,0.02,VWS V14.01,2013-04-08 20:32:00,
2013-04-08 16:33:00,71.4,71.4,30.03,North,359,0.0,24.5,100,0.02,,SKC,0.02,VWS V14.01,2013-04-08 20:33:00,
2013-04-08 16:37:00,71.4,71.4,30.02,North,359,0.0,24.5,100,0.02,,SKC,0.02,VWS V14.01,2013-04-08 20:37:00,
2013-04-08 16:38:00,71.4,71.3,30.03,North,359,0.0,24.5,100,0.02,,SKC,0.02,VWS V14.01,2013-04-08 20:38:00,
2013-04-08 16:39:00,71.3,71.3,30.03,North,359,0.0,24.5,100,0.02,,SKC,0.02,VWS V14.01,2013-04-08 20:39:00,
2013-04-08 16:42:00,71.1,71.1,30.03,North,359,0.0,24.5,100,0.02,,SKC,0.02,VWS V14.01,2013-04-08 20:42:00,
2013-04-08 16:43:00,71.0,71.0,30.03,North,359,0.0,24.5,100,0.02,,SKC,0.02,VWS V14.01,2013-04-08 20:43:00,
2013-04-08 16:44:00,71.1,71.1,30.02,North,359,0.0,24.5,100,0.02,,SKC,0.02,VWS V14.01,2013-04-08 20:44:00,
2013-04-08 16:47:00,71.0,71.0,30.02,North,359,0.0,24.5,100,0.02,,SKC,0.02,VWS V14.01,2013-04-08 20:47:00,
2013-04-08 16:48:00,71.0,71.0,30.02,North,359,0.0,24.5,100,0.02,,SKC,0.02,VWS V14.01,2013-04-08 20:48:00,
2013-04-08 16:49:00,70.9,70.9,30.02,North,359,0.0,24.5,100,0.02,,SKC,0.02,VWS V14.01,2013-04-08 20:49:00,
2013-04-08 16:52:00,70.9,70.9,30.02,North,359,0.0,24.5,100,0.02,,SKC,0.02,VWS V14.01,2013-04-08 20:52:00,
2013-04-08 16:53:00,70.9,70.9,30.02,North,359,0.0,24.5,100,0.02,,SKC,0.02,VWS V14.01,2013-04-08 20:53:00,
2013-04-08 16:54:00,71.1,71.0,30.02,North,359,0.0,24.5,100,0.02,,SKC,0.02,VWS V14.01,2013-04-08 20:54:00,
2013-04-08 16:57:00,71.1,71.1,30.02,North,359,0.0,24.5,100,0.02,,SKC,0.02,VWS V14.01,2013-04-08 20:57:00,
2013-04-08 16:58:00,71.1,71.1,30.02,North,359,0.0,24.5,100,0.02,,SKC,0.02,VWS V14.01,2013-04-08 20:58:00,
2013-04-08 17:00:00,71.0,71.0,30.02,North,359,0.0,24.5,100,0.02,,SKC,0.02,VWS V14.01,2013-04-08 21:00:00,
2013-04-08 17:02:00,70.7,70.7,30.02,North,359,0.0,24.5,100,0.02,,SKC,0.02,VWS V14.01,2013-04-08 21:02:00,
2013-04-08 17:03:00,70.7,70.7,30.02,North,359,0.0,24.5,100,0.02,,SKC,0.02,VWS V14.01,2013-04-08 21:03:00,
2013-04-08 17:06:00,70.6,70.6,30.02,North,359,0.0,24.5,100,0.02,,SKC,0.02,VWS V14.01,2013-04-08 21:06:00,
2013-04-08 17:07:00,70.5,70.5,30.02,North,359,0.0,24.5,100,0.02,,SKC,0.02,VWS V14.01,2013-04-08 21:07:00,
2013-04-08 17:08:00,70.5,70.5,30.02,North,359,0.0,24.5,100,0.02,,SKC,0.02,VWS V14.01,2013-04-08 21:08:00,
2013-04-08 17:09:00,70.5,70.5,30.02,North,359,0.0,24.5,100,0.02,,SKC,0.02,VWS V14.01,2013-04-08 21:09:00,
2013-04-08 17:11:00,70.4,70.4,30.02,North,359,0.0,24.5,100,0.02,,SKC,0.02,VWS V14.01,2013-04-08 21:11:00,
2013-04-08 17:12:00,70.3,70.3,30.02,North,359,0.0,24.5,100,0.02,,SKC,0.02,VWS V14.01,2013-04-08 21:12:00,
2013-04-08 17:13:00,70.3,70.3,30.02,North,359,0.0,24.5,100,0.02,,SKC,0.02,VWS V14.01,2013-04-08 21:13:00,
2013-04-08 17:14:00,70.3,70.3,30.02,North,359,0.5,24.5,100,0.02,,SKC,0.02,VWS V14.01,2013-04-08 21:14:00,
2013-04-08 17:16:00,70.2,70.2,30.02,North,359,0.0,24.5,100,0.02,,SKC,0.02,VWS V14.01,2013-04-08 21:16:00,
2013-04-08 17:17:00,70.1,70.1,30.02,North,359,0.0,24.5,100,0.02,,SKC,0.02,VWS V14.01,2013-04-08 21:17:00,
2013-04-08 17:19:00,70.2,70.2,30.01,North,359,0.0,24.5,100,0.02,,SKC,0.02,VWS V14.01,2013-04-08 21:19:00,
2013-04-08 17:22:00,70.0,70.0,30.01,North,359,0.0,24.5,100,0.02,,SKC,0.02,VWS V14.01,2013-04-08 21:22:00,
2013-04-08 17:24:00,70.0,70.0,30.02,North,359,0.0,24.5,100,0.02,,SKC,0.02,VWS V14.01,2013-04-08 21:24:00,
2013-04-08 17:27:00,70.1,70.1,30.02,North,359,0.0,24.5,100,0.02,,SKC,0.02,VWS V14.01,2013-04-08 21:27:00,
2013-04-08 17:29:00,70.2,70.2,30.01,North,359,0.0,24.5,100,0.02,,SKC,0.02,VWS V14.01,2013-04-08 21:29:00,
2013-04-08 17:32:00,70.2,70.2,30.02,North,359,0.0,24.5,100,0.02,,SKC,0.02,VWS V14.01,2013-04-08 21:32:00,
2013-04-08 17:33:00,70.3,70.3,30.01,North,359,0.0,24.5,100,0.02,,SKC,0.02,VWS V14.01,2013-04-08 21:33:00,
2013-04-08 17:34:00,70.3,70.3,30.01,North,359,0.0,24.5,100,0.02,,SKC,0.02,VWS V14.01,2013-04-08 21:34:00,
2013-04-08 17:37:00,70.2,70.2,30.01,SSW,197,7.2,24.5,100,0.02,,SKC,0.02,VWS V14.01,2013-04-08 21:37:00,
2013-04-08 17:38:00,70.3,70.3,30.01,South,173,6.4,24.5,100,0.02,,SKC,0.02,VWS V14.01,2013-04-08 21:38:00,
2013-04-08 17:39:00,70.2,70.2,30.01,North,359,0.0,24.5,100,0.02,,SKC,0.02,VWS V14.01,2013-04-08 21:39:00,
2013-04-08 17:40:00,70.2,70.2,30.01,North,359,1.6,24.5,100,0.02,,SKC,0.02,VWS V14.01,2013-04-08 21:40:00,
2013-04-08 17:42:00,70.2,70.2,30.01,North,359,0.0,24.5,100,0.02,,SKC,0.02,VWS V14.01,2013-04-08 21:42:00,
2013-04-08 17:43:00,70.3,70.3,30.01,North,359,0.0,24.5,100,0.02,,SKC,0.02,VWS V14.01,2013-04-08 21:43:00,
2013-04-08 17:44:00,70.2,70.2,30.01,SSW,211,6.2,24.5,100,0.02,,SKC,0.02,VWS V14.01,2013-04-08 21:44:00,
2013-04-08 17:45:00,70.2,70.2,30.01,SSE,162,9.0,24.5,100,0.02,,SKC,0.02,VWS V14.01,2013-04-08 21:45:00,
2013-04-08 17:48:00,70.1,70.1,30.01,South,173,0.0,24.5,100,0.02,,SKC,0.02,VWS V14.01,2013-04-08 21:48:00,
2013-04-08 17:50:00,70.0,70.0,30.01,South,173,7.9,24.5,100,0.02,,SKC,0.02,VWS V14.01,2013-04-08 21:50:00,
2013-04-08 17:53:00,69.9,69.9,30.01,SSW,210,7.8,24.5,100,0.02,,SKC,0.02,VWS V14.01,2013-04-08 21:53:00,
2013-04-08 17:55:00,69.7,69.7,30.01,South,169,8.9,24.5,100,0.02,,SKC,0.02,VWS V14.01,2013-04-08 21:55:00,
2013-04-08 17:58:00,69.6,69.6,30.01,South,170,7.6,24.5,100,0.02,,SKC,0.02,VWS V14.01,2013-04-08 21:58:00,
2013-04-08 18:00:00,69.8,69.8,30.01,SSE,166,9.0,24.5,100,0.02,,SKC,0.02,VWS V14.01,2013-04-08 22:00:00,
2013-04-08 18:03:00,69.9,69.9,30.01,SSE,148,11.1,24.5,100,0.02,,SKC,0.02,VWS V14.01,2013-04-08 22:03:00,
2013-04-08 18:05:00,69.8,69.8,30.01,SSE,160,11.5,24.5,100,0.02,,SKC,0.02,VWS V14.01,2013-04-08 22:05:00,
2013-04-08 18:08:00,69.9,69.9,30.01,SSW,205,5.3,24.5,100,0.02,,SKC,0.02,VWS V14.01,2013-04-08 22:08:00,
2013-04-08 18:10:00,69.9,70.0,30.01,SSE,162,4.8,24.5,100,0.02,,SKC,0.02,VWS V14.01,2013-04-08 22:10:00,
2013-04-08 18:13:00,70.0,70.0,30.01,SSE,159,6.6,24.5,100,0.02,,SKC,0.02,VWS V14.01,2013-04-08 22:13:00,
2013-04-08 18:15:00,70.2,70.2,30.01,South,174,8.5,24.5,100,0.02,,SKC,0.02,VWS V14.01,2013-04-08 22:15:00,
2013-04-08 18:18:00,70.2,70.2,30.01,South,172,6.4,24.5,100,0.02,,SKC,0.02,VWS V14.01,2013-04-08 22:18:00,
2013-04-08 18:20:00,70.1,70.2,30.01,South,169,6.6,24.5,100,0.02,,SKC,0.02,VWS V14.01,2013-04-08 22:20:00,
2013-04-08 18:23:00,70.1,70.1,30.02,South,183,2.7,24.5,100,0.02,,SKC,0.02,VWS V14.01,2013-04-08 22:23:00,
2013-04-08 18:24:00,70.0,70.0,30.01,SSE,149,5.2,24.5,100,0.02,,SKC,0.02,VWS V14.01,2013-04-08 22:24:00,
2013-04-08 18:25:00,69.9,69.9,30.02,SSW,208,6.5,24.5,100,0.02,,SKC,0.02,VWS V14.01,2013-04-08 22:25:00,
2013-04-08 18:29:00,69.8,69.8,30.02,SE,143,1.4,24.5,100,0.02,,SKC,0.02,VWS V14.01,2013-04-08 22:29:00,
2013-04-08 18:30:00,69.9,69.9,30.02,South,179,7.7,24.5,100,0.02,,SKC,0.02,VWS V14.01,2013-04-08 22:30:00,
2013-04-08 18:34:00,69.8,69.8,30.02,SW,222,0.7,24.5,100,0.02,,SKC,0.02,VWS V14.01,2013-04-08 22:34:00,
2013-04-08 18:35:00,69.8,69.8,30.02,South,169,12.7,24.5,100,0.02,,SKC,0.02,VWS V14.01,2013-04-08 22:35:00,
2013-04-08 18:39:00,69.8,69.8,30.02,South,172,3.6,24.5,100,0.02,,SKC,0.02,VWS V14.01,2013-04-08 22:39:00,
2013-04-08 18:40:00,69.8,69.8,30.02,South,176,6.2,24.5,100,0.02,,SKC,0.02,VWS V14.01,2013-04-08 22:40:00,
2013-04-08 18:45:00,69.7,69.7,30.02,SE,143,6.6,24.5,100,0.02,,SKC,0.02,VWS V14.01,2013-04-08 22:45:00,
2013-04-08 18:46:00,69.7,69.7,30.02,SW,219,8.8,24.5,100,0.02,,SKC,0.02,VWS V14.01,2013-04-08 22:46:00,
2013-04-08 18:50:00,69.6,69.6,30.02,SSE,158,5.8,24.5,100,0.02,,SKC,0.02,VWS V14.01,2013-04-08 22:50:00,
2013-04-08 18:51:00,69.7,69.7,30.02,SSW,202,3.5,24.5,100,0.02,,SKC,0.02,VWS V14.01,2013-04-08 22:51:00,
2013-04-08 18:55:00,69.6,69.6,30.02,SSW,207,1.9,24.5,100,0.02,,SKC,0.02,VWS V14.01,2013-04-08 22:55:00,
2013-04-08 18:56:00,69.6,69.6,30.02,SSW,193,8.4,24.5,100,0.02,,SKC,0.02,VWS V14.01,2013-04-08 22:56:00,
2013-04-08 19:00:00,69.7,69.7,30.02,South,174,10.4,24.5,100,0.02,,SKC,0.02,VWS V14.01,2013-04-08 23:00:00,
2013-04-08 19:01:00,69.7,69.7,30.02,SE,145,4.9,24.5,100,0.02,,SKC,0.02,VWS V14.01,2013-04-08 23:01:00,
2013-04-08 19:02:00,69.6,69.6,30.02,SSW,193,5.3,24.5,100,0.02,,SKC,0.02,VWS V14.01,2013-04-08 23:02:00,
2013-04-08 19:05:00,69.6,69.7,30.02,SSE,163,9.2,24.5,100,0.02,,SKC,0.02,VWS V14.01,2013-04-08 23:05:00,
2013-04-08 19:07:00,69.6,69.6,30.02,South,187,7.3,24.5,100,0.02,,SKC,0.02,VWS V14.01,2013-04-08 23:07:00,
2013-04-08 19:10:00,69.7,69.7,30.02,SSE,167,10.6,24.5,100,0.02,,SKC,0.02,VWS V14.01,2013-04-08 23:10:00,
2013-04-08 19:12:00,69.6,69.6,30.02,South,190,8.7,24.5,100,0.02,,SKC,0.02,VWS V14.01,2013-04-08 23:12:00,
2013-04-08 19:13:00,69.7,69.7,30.02,South,186,7.3,24.5,100,0.02,,SKC,0.02,VWS V14.01,2013-04-08 23:13:00,
2013-04-08 19:15:00,69.6,69.6,30.02,SSE,165,9.3,24.5,100,0.02,,SKC,0.02,VWS V14.01,2013-04-08 23:15:00,
2013-04-08 19:17:00,69.6,69.6,30.02,SSE,159,8.1,24.5,100,0.02,,SKC,0.02,VWS V14.01,2013-04-08 23:17:00,
2013-04-08 19:18:00,69.7,69.7,30.02,SSE,153,6.1,24.5,100,0.02,,SKC,0.02,VWS V14.01,2013-04-08 23:18:00,
2013-04-08 19:20:00,69.5,69.5,30.02,SSE,163,2.8,24.5,100,0.02,,SKC,0.02,VWS V14.01,2013-04-08 23:20:00,
2013-04-08 19:22:00,69.5,69.5,30.02,SSE,153,8.5,24.5,100,0.02,,SKC,0.02,VWS V14.01,2013-04-08 23:22:00,
2013-04-08 19:23:00,69.5,69.6,30.02,South,172,6.3,24.5,100,0.02,,SKC,0.02,VWS V14.01,2013-04-08 23:23:00,
2013-04-08 19:25:00,69.5,69.5,30.02,SSW,210,8.1,24.5,100,0.02,,SKC,0.02,VWS V14.01,2013-04-08 23:25:00,
2013-04-08 19:28:00,69.4,69.5,30.03,SSE,159,9.8,24.5,100,0.02,,SKC,0.02,VWS V14.01,2013-04-08 23:28:00,
2013-04-08 19:30:00,69.4,69.4,30.03,South,181,5.6,24.5,100,0.02,,SKC,0.02,VWS V14.01,2013-04-08 23:30:00,
2013-04-08 19:33:00,69.4,69.4,30.03,WSW,238,0.0,24.5,100,0.02,,SKC,0.02,VWS V14.01,2013-04-08 23:33:00,
2013-04-08 19:34:00,69.5,69.5,30.03,SSE,162,8.0,24.5,100,0.02,,SKC,0.02,VWS V14.01,2013-04-08 23:34:00,
2013-04-08 19:36:00,69.4,69.4,30.03,SSE,153,7.0,24.5,100,0.02,,SKC,0.02,VWS V14.01,2013-04-08 23:36:00,
2013-04-08 19:38:00,69.5,69.5,30.03,SSW,195,8.1,24.5,100,0.02,,SKC,0.02,VWS V14.01,2013-04-08 23:38:00,
2013-04-08 19:39:00,69.4,69.4,30.03,SSE,167,6.2,24.5,100,0.02,,SKC,0.02,VWS V14.01,2013-04-08 23:39:00,
2013-04-08 19:41:00,69.4,69.4,30.03,SE,139,5.1,24.5,100,0.02,,SKC,0.02,VWS V14.01,2013-04-08 23:41:00,
2013-04-08 19:43:00,69.5,69.5,30.03,South,188,3.1,24.5,100,0.02,,SKC,0.02,VWS V14.01,2013-04-08 23:43:00,
2013-04-08 19:45:00,69.5,69.5,30.03,SSW,205,8.2,24.5,100,0.02,,SKC,0.02,VWS V14.01,2013-04-08 23:45:00,
2013-04-08 19:46:00,69.4,69.4,30.03,SSW,204,6.2,24.5,100,0.02,,SKC,0.02,VWS V14.01,2013-04-08 23:46:00,
2013-04-08 19:48:00,69.4,69.4,30.03,South,188,3.2,24.5,100,0.02,,SKC,0.02,VWS V14.01,2013-04-08 23:48:00,
2013-04-08 19:49:00,69.4,69.4,30.03,SE,141,3.0,24.5,100,0.02,,SKC,0.02,VWS V14.01,2013-04-08 23:49:00,
2013-04-08 19:50:00,69.3,69.3,30.03,SSE,155,8.9,24.5,100,0.02,,SKC,0.02,VWS V14.01,2013-04-08 23:50:00,
2013-04-08 19:51:00,69.4,69.4,30.03,SSW,212,0.0,24.5,100,0.02,,SKC,0.02,VWS V14.01,2013-04-08 23:51:00,
2013-04-08 19:53:00,69.3,69.3,30.04,South,179,5.7,24.5,100,0.02,,SKC,0.02,VWS V14.01,2013-04-08 23:53:00,
2013-04-08 19:54:00,69.3,69.3,30.04,South,176,7.3,24.5,100,0.02,,SKC,0.02,VWS V14.01,2013-04-08 23:54:00,
2013-04-08 19:55:00,69.3,69.3,30.04,SSE,162,0.6,24.5,100,0.02,,SKC,0.02,VWS V14.01,2013-04-08 23:55:00,
2013-04-08 19:56:00,69.3,69.3,30.03,SE,146,0.0,24.5,100,0.02,,SKC,0.02,VWS V14.01,2013-04-08 23:56:00,
2013-04-08 19:58:00,69.2,69.2,30.04,South,170,6.6,24.5,100,0.02,,SKC,0.02,VWS V14.01,2013-04-08 23:58:00,
2013-04-08 20:00:00,69.2,69.2,30.04,SE,145,9.6,24.5,100,0.02,,SKC,0.02,VWS V14.01,2013-04-09 00:00:00,
2013-04-08 20:01:00,69.2,69.2,30.03,South,169,5.5,24.5,100,0.02,,SKC,0.02,VWS V14.01,2013-04-09 00:01:00,
2013-04-08 20:03:00,69.2,69.2,30.03,SSW,204,5.0,24.5,100,0.02,,SKC,0.02,VWS V14.01,2013-04-09 00:03:00,
2013-04-08 20:05:00,69.1,69.1,30.03,SSE,167,3.4,24.5,100,0.02,,SKC,0.02,VWS V14.01,2013-04-09 00:05:00,
2013-04-08 20:06:00,69.2,69.2,30.03,South,187,3.5,24.5,100,0.02,,SKC,0.02,VWS V14.01,2013-04-09 00:06:00,
2013-04-08 20:09:00,69.1,69.1,30.04,SSE,160,9.8,24.5,100,0.02,,SKC,0.02,VWS V14.01,2013-04-09 00:09:00,
2013-04-08 20:10:00,69.1,69.2,30.04,SE,146,1.6,24.5,100,0.02,,SKC,0.02,VWS V14.01,2013-04-09 00:10:00,
2013-04-08 20:12:00,69.1,69.1,30.04,South,180,7.7,24.5,100,0.02,,SKC,0.02,VWS V14.01,2013-04-09 00:12:00,
2013-04-08 20:15:00,69.0,69.0,30.03,South,174,4.6,24.5,100,0.02,,SKC,0.02,VWS V14.01,2013-04-09 00:15:00,
2013-04-08 20:16:00,69.1,69.1,30.04,SSW,201,0.6,24.5,100,0.02,,SKC,0.02,VWS V14.01,2013-04-09 00:16:00,
2013-04-08 20:17:00,69.0,69.0,30.04,South,179,0.4,24.5,100,0.02,,SKC,0.02,VWS V14.01,2013-04-09 00:17:00,
2013-04-08 20:20:00,69.0,69.0,30.03,North,359,9.3,24.5,100,0.02,,SKC,0.02,VWS V14.01,2013-04-09 00:20:00,
2013-04-08 20:21:00,69.0,69.0,30.03,SSW,197,3.3,24.5,100,0.02,,SKC,0.02,VWS V14.01,2013-04-09 00:21:00,
2013-04-08 20:22:00,69.0,69.0,30.03,SSW,200,0.5,24.5,100,0.02,,SKC,0.02,VWS V14.01,2013-04-09 00:22:00,
2013-04-08 20:25:00,68.9,68.9,30.03,South,183,6.3,24.5,100,0.02,,SKC,0.02,VWS V14.01,2013-04-09 00:25:00,
2013-04-08 20:26:00,68.9,68.9,30.03,SSW,207,9.6,24.5,100,0.02,,SKC,0.02,VWS V14.01,2013-04-09 00:26:00,
2013-04-08 20:27:00,68.9,68.9,30.03,South,170,7.4,24.5,100,0.02,,SKC,0.02,VWS V14.01,2013-04-09 00:27:00,
2013-04-08 20:30:00,68.9,68.9,30.03,South,179,6.2,24.5,100,0.02,,SKC,0.02,VWS V14.01,2013-04-09 00:30:00,
2013-04-08 20:31:00,68.9,68.9,30.04,SSE,160,6.0,24.5,100,0.02,,SKC,0.02,VWS V14.01,2013-04-09 00:31:00,
2013-04-08 20:32:00,68.9,69.0,30.03,SSE,158,3.4,24.5,100,0.02,,SKC,0.02,VWS V14.01,2013-04-09 00:32:00,
2013-04-08 20:35:00,68.8,68.8,30.03,SSE,166,6.0,24.5,100,0.02,,SKC,0.02,VWS V14.01,2013-04-09 00:35:00,
2013-04-08 20:36:00,68.8,68.9,30.03,SSE,158,7.6,24.5,100,0.02,,SKC,0.02,VWS V14.01,2013-04-09 00:36:00,
2013-04-08 20:37:00,68.9,68.9,30.03,SSW,200,8.1,24.5,100,0.02,,SKC,0.02,VWS V14.01,2013-04-09 00:37:00,
2013-04-08 20:38:00,68.8,68.8,30.03,SSE,165,2.7,24.5,100,0.02,,SKC,0.02,VWS V14.01,2013-04-09 00:38:00,
2013-04-08 20:40:00,68.8,68.8,30.03,SSE,148,8.0,24.5,100,0.02,,SKC,0.02,VWS V14.01,2013-04-09 00:40:00,
2013-04-08 20:41:00,68.8,68.8,30.03,SW,219,4.4,24.5,100,0.02,,SKC,0.02,VWS V14.01,2013-04-09 00:41:00,
2013-04-08 20:42:00,68.8,68.8,30.03,SSW,212,7.3,24.5,100,0.02,,SKC,0.02,VWS V14.01,2013-04-09 00:42:00,
2013-04-08 20:43:00,68.8,68.8,30.04,SSE,159,9.4,24.5,100,0.02,,SKC,0.02,VWS V14.01,2013-04-09 00:43:00,
2013-04-08 20:45:00,68.7,68.7,30.04,South,186,4.0,24.5,100,0.02,,SKC,0.02,VWS V14.01,2013-04-09 00:45:00,
2013-04-08 20:47:00,68.7,68.7,30.04,SSE,165,8.1,24.5,100,0.02,,SKC,0.02,VWS V14.01,2013-04-09 00:47:00,
2013-04-08 20:48:00,68.7,68.7,30.03,SSW,193,5.1,24.5,100,0.02,,SKC,0.02,VWS V14.01,2013-04-09 00:48:00,
2013-04-08 20:50:00,68.7,68.7,30.03,SE,142,9.1,24.5,100,0.02,,SKC,0.02,VWS V14.01,2013-04-09 00:50:00,
2013-04-08 20:52:00,68.6,68.6,30.04,SW,214,5.7,24.5,100,0.02,,SKC,0.02,VWS V14.01,2013-04-09 00:52:00,
2013-04-08 20:53:00,68.6,68.6,30.04,SSE,159,3.7,24.5,100,0.02,,SKC,0.02,VWS V14.01,2013-04-09 00:53:00,
2013-04-08 20:55:00,68.6,68.6,30.03,South,179,6.4,24.5,100,0.02,,SKC,0.02,VWS V14.01,2013-04-09 00:55:00,
2013-04-08 20:57:00,68.6,68.6,30.03,South,173,5.3,24.5,100,0.02,,SKC,0.02,VWS V14.01,2013-04-09 00:57:00,
2013-04-08 20:58:00,68.5,68.5,30.04,SSE,149,6.1,24.5,100,0.02,,SKC,0.02,VWS V14.01,2013-04-09 00:58:00,
2013-04-08 21:00:00,68.5,68.5,30.03,South,181,11.9,24.5,100,0.02,,SKC,0.02,VWS V14.01,2013-04-09 01:00:00,
2013-04-08 21:02:00,68.4,68.4,30.04,SW,217,6.9,24.5,100,0.02,,SKC,0.02,VWS V14.01,2013-04-09 01:02:00,
2013-04-08 21:03:00,68.5,68.5,30.04,South,180,6.8,24.5,100,0.02,,SKC,0.02,VWS V14.01,2013-04-09 01:03:00,
2013-04-08 21:05:00,68.4,68.4,30.04,SSW,195,6.7,24.5,100,0.02,,SKC,0.02,VWS V14.01,2013-04-09 01:05:00,
2013-04-08 21:07:00,68.4,68.4,30.03,SSE,166,5.5,24.5,100,0.02,,SKC,0.02,VWS V14.01,2013-04-09 01:07:00,
2013-04-08 21:10:00,68.5,68.5,30.03,SSE,163,5.4,24.5,100,0.02,,SKC,0.02,VWS V14.01,2013-04-09 01:10:00,
2013-04-08 21:12:00,68.5,68.5,30.03,South,173,6.4,24.5,100,0.02,,SKC,0.02,VWS V14.01,2013-04-09 01:12:00,
2013-04-08 21:13:00,68.5,68.5,30.03,South,177,7.5,24.5,100,0.02,,SKC,0.02,VWS V14.01,2013-04-09 01:13:00,
2013-04-08 21:15:00,68.5,68.5,30.03,SW,231,7.5,24.5,100,0.02,,SKC,0.02,VWS V14.01,2013-04-09 01:15:00,
2013-04-08 21:17:00,68.4,68.5,30.04,North,359,7.0,24.5,100,0.02,,SKC,0.02,VWS V14.01,2013-04-09 01:17:00,
2013-04-08 21:18:00,68.4,68.4,30.03,South,180,12.9,24.5,100,0.02,,SKC,0.02,VWS V14.01,2013-04-09 01:18:00,
2013-04-08 21:20:00,68.4,68.4,30.03,SSE,149,5.0,24.5,100,0.02,,SKC,0.02,VWS V14.01,2013-04-09 01:20:00,
2013-04-08 21:21:00,68.5,68.5,30.03,SE,146,7.8,24.5,100,0.02,,SKC,0.02,VWS V14.01,2013-04-09 01:21:00,
2013-04-08 21:22:00,68.5,68.5,30.03,SSE,149,5.7,24.5,100,0.02,,SKC,0.02,VWS V14.01,2013-04-09 01:22:00,
2013-04-08 21:23:00,68.5,68.5,30.03,SSE,156,7.5,24.5,100,0.02,,SKC,0.02,VWS V14.01,2013-04-09 01:23:00,
2013-04-08 21:25:00,68.5,68.4,30.03,SSE,156,7.5,24.5,100,0.02,,SKC,0.02,VWS V14.01,2013-04-09 01:25:00,
2013-04-08 21:26:00,68.5,68.5,30.03,SSE,153,8.1,24.5,100,0.02,,SKC,0.02,VWS V14.01,2013-04-09 01:26:00,
2013-04-08 21:27:00,68.4,68.4,30.03,North,359,12.1,24.5,100,0.02,,SKC,0.02,VWS V14.01,2013-04-09 01:27:00,
2013-04-08 21:28:00,68.4,68.4,30.03,SSE,156,8.0,24.5,100,0.02,,SKC,0.02,VWS V14.01,2013-04-09 01:28:00,
2013-04-08 21:30:00,68.3,68.3,30.03,SE,138,13.0,24.5,100,0.02,,SKC,0.02,VWS V14.01,2013-04-09 01:30:00,
2013-04-08 21:31:00,68.4,68.4,30.03,SSE,159,9.6,24.5,100,0.02,,SKC,0.02,VWS V14.01,2013-04-09 01:31:00,
2013-04-08 21:33:00,68.4,68.4,30.03,SSE,152,11.1,24.5,100,0.02,,SKC,0.02,VWS V14.01,2013-04-09 01:33:00,
2013-04-08 21:36:00,68.4,68.4,30.03,SE,139,5.6,24.5,100,0.02,,SKC,0.02,VWS V14.01,2013-04-09 01:36:00,
2013-04-08 21:38:00,68.4,68.4,30.03,SSW,208,11.9,24.5,100,0.02,,SKC,0.02,VWS V14.01,2013-04-09 01:38:00,
2013-04-08 21:41:00,68.4,68.4,30.03,SE,139,10.8,24.5,100,0.02,,SKC,0.02,VWS V14.01,2013-04-09 01:41:00,
2013-04-08 21:43:00,68.4,68.4,30.03,North,359,6.0,24.5,100,0.02,,SKC,0.02,VWS V14.01,2013-04-09 01:43:00,
2013-04-08 21:46:00,68.3,68.3,30.03,North,359,8.3,24.5,100,0.02,,SKC,0.02,VWS V14.01,2013-04-09 01:46:00,
2013-04-08 21:48:00,68.4,68.4,30.03,SSE,167,6.5,24.5,100,0.02,,SKC,0.02,VWS V14.01,2013-04-09 01:48:00,
2013-04-08 21:52:00,68.3,68.3,30.03,SSE,155,4.0,24.5,100,0.02,,SKC,0.02,VWS V14.01,2013-04-09 01:52:00,
2013-04-08 21:53:00,68.4,68.4,30.03,South,190,9.8,24.5,100,0.02,,SKC,0.02,VWS V14.01,2013-04-09 01:53:00,
2013-04-08 21:57:00,68.3,68.3,30.04,SSE,167,10.8,24.5,100,0.02,,SKC,0.02,VWS V14.01,2013-04-09 01:57:00,
2013-04-08 21:58:00,68.3,68.3,30.04,SE,138,8.4,24.5,100,0.02,,SKC,0.02,VWS V14.01,2013-04-09 01:58:00,
2013-04-08 22:02:00,68.3,68.3,30.03,South,184,8.9,24.5,100,0.02,,SKC,0.02,VWS V14.01,2013-04-09 02:02:00,
2013-04-08 22:03:00,68.3,68.3,30.03,SE,146,8.8,24.5,100,0.02,,SKC,0.02,VWS V14.01,2013-04-09 02:03:00,
2013-04-08 22:07:00,68.4,68.4,30.04,South,180,3.9,24.5,100,0.02,,SKC,0.02,VWS V14.01,2013-04-09 02:07:00,
2013-04-08 22:08:00,68.3,68.3,30.03,South,190,5.7,24.5,100,0.02,,SKC,0.02,VWS V14.01,2013-04-09 02:08:00,
2013-04-08 22:12:00,68.3,68.3,30.03,SSE,152,5.7,24.5,100,0.02,,SKC,0.02,VWS V14.01,2013-04-09 02:12:00,
2013-04-08 22:13:00,68.3,68.3,30.03,SSW,211,7.3,24.5,100,0.02,,SKC,0.02,VWS V14.01,2013-04-09 02:13:00,
2013-04-08 22:14:00,68.3,68.3,30.04,SW,215,5.7,24.5,100,0.02,,SKC,0.02,VWS V14.01,2013-04-09 02:14:00,
2013-04-08 22:17:00,68.3,68.3,30.04,South,176,4.0,24.5,100,0.02,,SKC,0.02,VWS V14.01,2013-04-09 02:17:00,
2013-04-08 22:18:00,68.3,68.3,30.04,South,174,0.2,24.5,100,0.02,,SKC,0.02,VWS V14.01,2013-04-09 02:18:00,
2013-04-08 22:19:00,68.3,68.3,30.04,SSE,158,8.9,24.5,100,0.02,,SKC,0.02,VWS V14.01,2013-04-09 02:19:00,
2013-04-08 22:22:00,68.3,68.3,30.04,SSW,207,4.9,24.5,100,0.03,,SKC,0.03,VWS V14.01,2013-04-09 02:22:00,
2013-04-08 22:23:00,68.2,68.3,30.04,SSE,156,9.1,24.5,100,0.03,,SKC,0.03,VWS V14.01,2013-04-09 02:23:00,
2013-04-08 22:24:00,68.3,68.3,30.04,SSE,155,6.8,24.5,100,0.03,,SKC,0.03,VWS V14.01,2013-04-09 02:24:00,
2013-04-08 22:27:00,68.3,68.3,30.03,SE,141,0.0,24.5,100,0.03,,SKC,0.03,VWS V14.01,2013-04-09 02:27:00,
2013-04-08 22:29:00,68.3,68.3,30.04,SE,141,0.0,24.5,100,0.03,,SKC,0.03,VWS V14.01,2013-04-09 02:29:00,
2013-04-08 22:33:00,68.2,68.3,30.03,North,359,0.0,24.5,100,0.03,,SKC,0.03,VWS V14.01,2013-04-09 02:33:00,
2013-04-08 22:34:00,68.3,68.3,30.03,South,191,11.3,24.5,100,0.03,,SKC,0.03,VWS V14.01,2013-04-09 02:34:00,
2013-04-08 22:35:00,68.3,68.3,30.03,South,188,10.9,24.5,100,0.03,,SKC,0.03,VWS V14.01,2013-04-09 02:35:00,
2013-04-08 22:38:00,68.3,68.3,30.03,South,180,1.9,24.5,100,0.03,,SKC,0.03,VWS V14.01,2013-04-09 02:38:00,
2013-04-08 22:39:00,68.3,68.3,30.04,South,187,7.0,24.5,100,0.03,,SKC,0.03,VWS V14.01,2013-04-09 02:39:00,
2013-04-08 22:40:00,68.3,68.3,30.03,South,176,5.1,24.5,100,0.03,,SKC,0.03,VWS V14.01,2013-04-09 02:40:00,
2013-04-08 22:43:00,68.3,68.3,30.03,North,359,0.3,24.5,100,0.03,,SKC,0.03,VWS V14.01,2013-04-09 02:43:00,
2013-04-08 22:44:00,68.3,68.4,30.04,South,176,1.6,24.5,100,0.03,,SKC,0.03,VWS V14.01,2013-04-09 02:44:00,
2013-04-08 22:45:00,68.3,68.3,30.03,North,359,5.4,24.5,100,0.03,,SKC,0.03,VWS V14.01,2013-04-09 02:45:00,
2013-04-08 22:48:00,68.3,68.3,30.03,SSW,207,3.7,24.5,100,0.03,,SKC,0.03,VWS V14.01,2013-04-09 02:48:00,
2013-04-08 22:49:00,68.4,68.4,30.03,North,359,10.6,24.5,100,0.03,,SKC,0.03,VWS V14.01,2013-04-09 02:49:00,
2013-04-08 22:50:00,68.3,68.3,30.03,South,191,7.4,24.5,100,0.03,,SKC,0.03,VWS V14.01,2013-04-09 02:50:00,
2013-04-08 22:53:00,68.3,68.3,30.03,South,177,10.6,24.5,100,0.03,,SKC,0.03,VWS V14.01,2013-04-09 02:53:00,
2013-04-08 22:55:00,68.4,68.4,30.03,SSE,155,8.8,24.5,100,0.03,,SKC,0.03,VWS V14.01,2013-04-09 02:55:00,
2013-04-08 22:59:00,68.3,68.3,30.03,SSE,167,9.2,24.5,100,0.03,,SKC,0.03,VWS V14.01,2013-04-09 02:59:00,
2013-04-08 23:00:00,68.4,68.4,30.03,SSW,197,4.7,24.5,100,0.03,,SKC,0.03,VWS V14.01,2013-04-09 03:00:00,
2013-04-08 23:01:00,68.3,68.3,30.03,South,174,7.0,24.5,100,0.03,,SKC,0.03,VWS V14.01,2013-04-09 03:01:00,
2013-04-08 23:02:00,68.1,68.1,30.01,South,179,6.1,24.5,100,0.03,,SKC,0.03,VWS V14.01,2013-04-09 03:02:00,
2013-04-08 23:03:00,68.1,68.1,30.01,SSE,163,6.8,24.5,100,0.03,,SKC,0.03,VWS V14.01,2013-04-09 03:03:00,
2013-04-08 23:04:00,68.3,68.3,30.03,SSW,201,12.4,24.5,100,0.03,,SKC,0.03,VWS V14.01,2013-04-09 03:04:00,
2013-04-08 23:05:00,68.3,68.3,30.03,SSE,165,3.4,24.5,100,0.03,,SKC,0.03,VWS V14.01,2013-04-09 03:05:00,
2013-04-08 23:06:00,68.3,68.3,30.03,South,190,9.6,24.5,100,0.03,,SKC,0.03,VWS V14.01,2013-04-09 03:06:00,
2013-04-08 23:07:00,68.1,68.1,30.01,SSW,194,7.8,24.5,100,0.03,,SKC,0.03,VWS V14.01,2013-04-09 03:07:00,
2013-04-08 23:09:00,68.3,68.3,30.03,SSW,194,15.4,24.5,100,0.03,,SKC,0.03,VWS V14.01,2013-04-09 03:09:00,
2013-04-08 23:10:00,68.2,68.2,30.03,SSW,202,7.8,24.5,100,0.03,,SKC,0.03,VWS V14.01,2013-04-09 03:10:00,
2013-04-08 23:11:00,68.2,68.2,30.03,North,359,1.4,24.5,100,0.03,,SKC,0.03,VWS V14.01,2013-04-09 03:11:00,
2013-04-08 23:15:00,68.2,68.2,30.03,SSE,165,2.6,24.5,100,0.03,,SKC,0.03,VWS V14.01,2013-04-09 03:15:00,
2013-04-08 23:16:00,68.2,68.2,30.03,North,359,0.0,24.5,100,0.03,,SKC,0.03,VWS V14.01,2013-04-09 03:16:00,
2013-04-08 23:20:00,68.2,68.2,30.02,North,359,5.3,24.5,100,0.03,,SKC,0.03,VWS V14.01,2013-04-09 03:20:00,
2013-04-08 23:21:00,68.1,68.1,30.02,SSE,165,11.1,24.5,100,0.03,,SKC,0.03,VWS V14.01,2013-04-09 03:21:00,
2013-04-08 23:22:00,68.2,68.2,30.02,South,170,0.0,24.5,100,0.03,,SKC,0.03,VWS V14.01,2013-04-09 03:22:00,
2013-04-08 23:25:00,68.1,68.1,30.02,North,359,0.2,24.5,100,0.03,,SKC,0.03,VWS V14.01,2013-04-09 03:25:00,
2013-04-08 23:26:00,68.1,68.1,30.02,South,188,7.6,24.5,100,0.03,,SKC,0.03,VWS V14.01,2013-04-09 03:26:00,
2013-04-08 23:27:00,68.1,68.1,30.02,SE,141,6.9,24.5,100,0.03,,SKC,0.03,VWS V14.01,2013-04-09 03:27:00,
2013-04-08 23:30:00,68.2,68.2,30.02,North,359,5.0,24.5,100,0.03,,SKC,0.03,VWS V14.01,2013-04-09 03:30:00,
2013-04-08 23:31:00,68.2,68.2,30.02,SSW,197,4.6,24.5,100,0.03,,SKC,0.03,VWS V14.01,2013-04-09 03:31:00,
2013-04-08 23:32:00,68.1,68.1,30.01,SSE,158,11.2,24.5,100,0.03,,SKC,0.03,VWS V14.01,2013-04-09 03:32:00,
2013-04-08 23:35:00,68.2,68.1,30.01,SSE,166,10.3,24.5,100,0.03,,SKC,0.03,VWS V14.01,2013-04-09 03:35:00,
2013-04-08 23:36:00,68.1,68.1,30.01,North,359,2.3,24.5,100,0.03,,SKC,0.03,VWS V14.01,2013-04-09 03:36:00,
2013-04-08 23:37:00,68.1,68.1,30.01,North,359,4.3,24.5,100,0.03,,SKC,0.03,VWS V14.01,2013-04-09 03:37:00,
2013-04-08 23:40:00,68.1,68.1,30.01,SSW,202,9.4,24.5,100,0.03,,SKC,0.03,VWS V14.01,2013-04-09 03:40:00,
2013-04-08 23:41:00,68.1,68.1,30.01,SSW,197,0.0,24.5,100,0.03,,SKC,0.03,VWS V14.01,2013-04-09 03:41:00,
2013-04-08 23:42:00,68.1,68.1,30.02,SSW,197,0.4,24.5,100,0.03,,SKC,0.03,VWS V14.01,2013-04-09 03:42:00,
2013-04-08 23:45:00,68.1,68.1,30.02,SW,219,7.8,24.5,100,0.03,,SKC,0.03,VWS V14.01,2013-04-09 03:45:00,
2013-04-08 23:46:00,68.1,68.1,30.02,SE,139,21.3,24.5,100,0.03,,SKC,0.03,VWS V14.01,2013-04-09 03:46:00,
2013-04-08 23:47:00,68.1,68.1,30.02,SSE,163,9.6,24.5,100,0.03,,SKC,0.03,VWS V14.01,2013-04-09 03:47:00,
2013-04-08 23:48:00,68.1,68.1,30.02,South,176,10.7,24.5,100,0.03,,SKC,0.03,VWS V14.01,2013-04-09 03:48:00,
2013-04-08 23:50:00,68.1,68.1,30.02,SSW,208,7.7,24.5,100,0.03,,SKC,0.03,VWS V14.01,2013-04-09 03:50:00,
2013-04-08 23:51:00,68.1,68.1,30.02,SSE,162,9.3,24.5,100,0.03,,SKC,0.03,VWS V14.01,2013-04-09 03:51:00,
2013-04-08 23:52:00,68.1,68.1,30.02,SW,214,8.1,24.5,100,0.03,,SKC,0.03,VWS V14.01,2013-04-09 03:52:00,
2013-04-08 23:53:00,68.1,68.1,30.01,SE,142,14.2,24.5,100,0.03,,SKC,0.03,VWS V14.01,2013-04-09 03:53:00,
2013-04-08 23:56:00,68.1,68.1,30.01,South,191,5.6,24.5,100,0.03,,SKC,0.03,VWS V14.01,2013-04-09 03:56:00,
2013-04-08 23:58:00,68.1,68.1,30.01,SSE,152,10.3,24.5,100,0.03,,SKC,0.03,VWS V14.01,2013-04-09 03:58:00,